<?xml version='1.0' encoding='UTF-8'?><gpx version="1.1" creator="JPX - https://github.com/jenetics/jpx" xmlns="http://www.topografix.com/GPX/1/1"><trk><trkseg><trkpt lat="14.557905807132002" lon="120.99548453032399"><ele>9.0</ele><time>2026-04-02T03:41:01.281Z</time></trkpt><trkpt lat="14.557739870335793" lon="120.99561342041731"><ele>9.0</ele><time>2026-04-02T03:41:04.281Z</time></trkpt><trkpt lat="14.558088230893961" lon="120.99640968003283"><ele>9.0</ele><time>2026-04-02T03:42:46.282Z</time></trkpt><trkpt lat="14.55813980235568" lon="120.99627815966356"><ele>9.0</ele><time>2026-04-02T03:42:47.282Z</time></trkpt><trkpt lat="14.558160760929265" lon="120.99616199946955"><ele>9.0</ele><time>2026-04-02T03:42:48.282Z</time></trkpt><trkpt lat="14.557950800238142" lon="120.99623888737082"><ele>9.4</ele><time>2026-04-02T03:42:59.001Z</time></trkpt><trkpt lat="14.557820705788671" lon="120.99627390767931"><ele>9.8</ele><time>2026-04-02T03:43:01.001Z</time></trkpt><trkpt lat="14.557742642619854" lon="120.99629280407798"><ele>10.200000000000001</ele><time>2026-04-02T03:43:02.001Z</time></trkpt><trkpt lat="14.557668353881258" lon="120.99631178751002"><ele>10.600000000000001</ele><time>2026-04-02T03:43:03.001Z</time></trkpt><trkpt lat="14.557584453910605" lon="120.9963385632945"><ele>11.0</ele><time>2026-04-02T03:43:04.001Z</time></trkpt><trkpt lat="14.557500128855368" lon="120.99636284320445"><ele>11.0</ele><time>2026-04-02T03:43:05.001Z</time></trkpt><trkpt lat="14.557425854948868" lon="120.99637681265412"><ele>11.0</ele><time>2026-04-02T03:43:06.001Z</time></trkpt><trkpt lat="14.55736069834916" lon="120.99639247213209"><ele>11.0</ele><time>2026-04-02T03:43:07.001Z</time></trkpt><trkpt lat="14.557294455054672" lon="120.99640024741066"><ele>11.0</ele><time>2026-04-02T03:43:08.001Z</time></trkpt><trkpt lat="14.557183123703426" lon="120.99640924785112"><ele>11.0</ele><time>2026-04-02T03:43:10.001Z</time></trkpt><trkpt lat="14.557094514522072" lon="120.99640696265807"><ele>11.0</ele><time>2026-04-02T03:43:12.001Z</time></trkpt><trkpt lat="14.557029002929982" lon="120.996407900198"><ele>11.0</ele><time>2026-04-02T03:43:19Z</time></trkpt><trkpt lat="14.5569479973543" lon="120.99642603824462"><ele>11.0</ele><time>2026-04-02T03:43:55Z</time></trkpt><trkpt lat="14.55689936254184" lon="120.99630815616011"><ele>11.0</ele><time>2026-04-02T03:45:01.014Z</time></trkpt><trkpt lat="14.556854880137022" lon="120.99620562990958"><ele>11.0</ele><time>2026-04-02T03:45:02.015Z</time></trkpt><trkpt lat="14.556913071581759" lon="120.99629881901072"><ele>11.0</ele><time>2026-04-02T03:45:04.017Z</time></trkpt><trkpt lat="14.557059674966816" lon="120.9963711186732"><ele>10.4</ele><time>2026-04-02T03:46:10Z</time></trkpt><trkpt lat="14.556933888807706" lon="120.99644534695423"><ele>9.8</ele><time>2026-04-02T03:46:21Z</time></trkpt><trkpt lat="14.55681020378912" lon="120.99647224496584"><ele>9.200000000000001</ele><time>2026-04-02T03:46:23Z</time></trkpt><trkpt lat="14.556738412498945" lon="120.99649073530227"><ele>8.600000000000001</ele><time>2026-04-02T03:46:24Z</time></trkpt><trkpt lat="14.556663740649656" lon="120.9965079820173"><ele>8.0</ele><time>2026-04-02T03:46:25Z</time></trkpt><trkpt lat="14.556579139279178" lon="120.99653623321394"><ele>7.999999999999999</ele><time>2026-04-02T03:46:26Z</time></trkpt><trkpt lat="14.556495407187297" lon="120.99655551778872"><ele>8.0</ele><time>2026-04-02T03:46:27Z</time></trkpt><trkpt lat="14.556415175508963" lon="120.99657576416386"><ele>8.0</ele><time>2026-04-02T03:46:28Z</time></trkpt><trkpt lat="14.556327666854273" lon="120.99659859346218"><ele>8.0</ele><time>2026-04-02T03:46:29Z</time></trkpt><trkpt lat="14.55624747987721" lon="120.99660789642269"><ele>7.999999999999999</ele><time>2026-04-02T03:46:30Z</time></trkpt><trkpt lat="14.556184296705274" lon="120.99663021450692"><ele>8.0</ele><time>2026-04-02T03:46:31Z</time></trkpt><trkpt lat="14.556114935777014" lon="120.9966449316693"><ele>7.999999999999999</ele><time>2026-04-02T03:46:32Z</time></trkpt><trkpt lat="14.556046667615707" lon="120.99665575639771"><ele>8.0</ele><time>2026-04-02T03:46:33Z</time></trkpt><trkpt lat="14.555978608496137" lon="120.9966956724377"><ele>8.0</ele><time>2026-04-02T03:46:34Z</time></trkpt><trkpt lat="14.555905000670377" lon="120.99671922640302"><ele>8.0</ele><time>2026-04-02T03:46:35Z</time></trkpt><trkpt lat="14.555836486217741" lon="120.99673650815588"><ele>7.999999999999999</ele><time>2026-04-02T03:46:36Z</time></trkpt><trkpt lat="14.555704299865802" lon="120.99675866773569"><ele>8.0</ele><time>2026-04-02T03:46:38Z</time></trkpt><trkpt lat="14.55563903884182" lon="120.99677700342946"><ele>8.166666666666666</ele><time>2026-04-02T03:46:39Z</time></trkpt><trkpt lat="14.555563902346705" lon="120.99679278456057"><ele>8.333333333333332</ele><time>2026-04-02T03:46:40Z</time></trkpt><trkpt lat="14.555490532906143" lon="120.99681017808204"><ele>8.5</ele><time>2026-04-02T03:46:41Z</time></trkpt><trkpt lat="14.555428442713819" lon="120.99683939907145"><ele>8.666666666666666</ele><time>2026-04-02T03:46:42Z</time></trkpt><trkpt lat="14.55532069387111" lon="120.99686311135424"><ele>8.833333333333334</ele><time>2026-04-02T03:46:44Z</time></trkpt><trkpt lat="14.555232535181373" lon="120.99687151471697"><ele>9.0</ele><time>2026-04-02T03:46:46Z</time></trkpt><trkpt lat="14.5551611040185" lon="120.9968700095782"><ele>9.0</ele><time>2026-04-02T03:46:51Z</time></trkpt><trkpt lat="14.555074164605895" lon="120.99688832328981"><ele>9.0</ele><time>2026-04-02T03:46:53Z</time></trkpt><trkpt lat="14.554955312801493" lon="120.99691218132651"><ele>9.0</ele><time>2026-04-02T03:46:55Z</time></trkpt><trkpt lat="14.554879182878087" lon="120.99690794492815"><ele>9.0</ele><time>2026-04-02T03:46:57Z</time></trkpt><trkpt lat="14.554819054196106" lon="120.99693130978125"><ele>9.0</ele><time>2026-04-02T03:46:59Z</time></trkpt><trkpt lat="14.554742648300719" lon="120.99693981228904"><ele>9.0</ele><time>2026-04-02T03:47:04Z</time></trkpt><trkpt lat="14.554677725861243" lon="120.99694144250331"><ele>9.0</ele><time>2026-04-02T03:47:10Z</time></trkpt><trkpt lat="14.554609905497507" lon="120.9969526150169"><ele>9.0</ele><time>2026-04-02T03:47:13Z</time></trkpt><trkpt lat="14.554541012580165" lon="120.99696369699768"><ele>9.0</ele><time>2026-04-02T03:47:16Z</time></trkpt><trkpt lat="14.554457524317131" lon="120.99698521603041"><ele>9.0</ele><time>2026-04-02T03:47:20Z</time></trkpt><trkpt lat="14.554380642345532" lon="120.99700429626891"><ele>9.0</ele><time>2026-04-02T03:47:23Z</time></trkpt><trkpt lat="14.554305915740496" lon="120.99701984330108"><ele>9.0</ele><time>2026-04-02T03:47:30Z</time></trkpt><trkpt lat="14.55423529841639" lon="120.9970273833991"><ele>9.0</ele><time>2026-04-02T03:47:35Z</time></trkpt><trkpt lat="14.554144152515446" lon="120.99706322087317"><ele>9.0</ele><time>2026-04-02T03:47:39Z</time></trkpt><trkpt lat="14.55404399250688" lon="120.99692519039127"><ele>9.0</ele><time>2026-04-02T03:47:42Z</time></trkpt><trkpt lat="14.55399711737919" lon="120.99683805809342"><ele>9.0</ele><time>2026-04-02T03:47:45Z</time></trkpt><trkpt lat="14.553979100142316" lon="120.99675363811589"><ele>9.0</ele><time>2026-04-02T03:47:47Z</time></trkpt><trkpt lat="14.553957860905108" lon="120.9966404597622"><ele>9.0</ele><time>2026-04-02T03:47:49Z</time></trkpt><trkpt lat="14.553941638945776" lon="120.99657100451378"><ele>9.0</ele><time>2026-04-02T03:47:50Z</time></trkpt><trkpt lat="14.553982976427216" lon="120.99649854108033"><ele>9.0</ele><time>2026-04-02T03:47:51Z</time></trkpt><trkpt lat="14.553958466720282" lon="120.99641895739086"><ele>9.0</ele><time>2026-04-02T03:47:52Z</time></trkpt><trkpt lat="14.553942553296633" lon="120.99634946337133"><ele>9.0</ele><time>2026-04-02T03:47:53Z</time></trkpt><trkpt lat="14.553925166175823" lon="120.99627353370826"><ele>9.0</ele><time>2026-04-02T03:47:54Z</time></trkpt><trkpt lat="14.553907575515263" lon="120.99619671519027"><ele>9.0</ele><time>2026-04-02T03:47:55Z</time></trkpt><trkpt lat="14.553889718386289" lon="120.9961187330171"><ele>9.0</ele><time>2026-04-02T03:47:56Z</time></trkpt><trkpt lat="14.553872475389056" lon="120.99604343274672"><ele>9.0</ele><time>2026-04-02T03:47:57Z</time></trkpt><trkpt lat="14.553856969415563" lon="120.99597571808133"><ele>9.0</ele><time>2026-04-02T03:47:58Z</time></trkpt><trkpt lat="14.553830322621268" lon="120.99585935135413"><ele>9.0</ele><time>2026-04-02T03:48:00Z</time></trkpt><trkpt lat="14.55380454517581" lon="120.99574913265843"><ele>9.0</ele><time>2026-04-02T03:48:02Z</time></trkpt><trkpt lat="14.55378365336003" lon="120.99566005060312"><ele>9.166666666666666</ele><time>2026-04-02T03:48:04Z</time></trkpt><trkpt lat="14.553766451833763" lon="120.99558670360908"><ele>9.333333333333334</ele><time>2026-04-02T03:48:06Z</time></trkpt><trkpt lat="14.553747978868468" lon="120.99548198287053"><ele>9.5</ele><time>2026-04-02T03:48:08Z</time></trkpt><trkpt lat="14.553735675584214" lon="120.9954178456235"><ele>9.666666666666668</ele><time>2026-04-02T03:48:09Z</time></trkpt><trkpt lat="14.553722501393633" lon="120.99534916821688"><ele>9.833333333333334</ele><time>2026-04-02T03:48:10Z</time></trkpt><trkpt lat="14.553711856404988" lon="120.99526395510809"><ele>10.0</ele><time>2026-04-02T03:48:11Z</time></trkpt><trkpt lat="14.553697157614918" lon="120.99515220944755"><ele>10.75</ele><time>2026-04-02T03:48:12Z</time></trkpt><trkpt lat="14.553683030900999" lon="120.99504252899085"><ele>11.5</ele><time>2026-04-02T03:48:13Z</time></trkpt><trkpt lat="14.55366586230192" lon="120.99490672099279"><ele>12.25</ele><time>2026-04-02T03:48:14Z</time></trkpt><trkpt lat="14.553650089433853" lon="120.99478159032672"><ele>13.0</ele><time>2026-04-02T03:48:15Z</time></trkpt><trkpt lat="14.553635549440859" lon="120.99466263188691"><ele>11.999999999999998</ele><time>2026-04-02T03:48:16Z</time></trkpt><trkpt lat="14.553622559841157" lon="120.99455614998686"><ele>11.0</ele><time>2026-04-02T03:48:17Z</time></trkpt><trkpt lat="14.553612193384074" lon="120.99447060859055"><ele>10.0</ele><time>2026-04-02T03:48:18Z</time></trkpt><trkpt lat="14.55359914410753" lon="120.99438217030585"><ele>9.0</ele><time>2026-04-02T03:48:19Z</time></trkpt><trkpt lat="14.55358853267316" lon="120.99431143790194"><ele>8.0</ele><time>2026-04-02T03:48:20Z</time></trkpt><trkpt lat="14.553578884696064" lon="120.99424712753793"><ele>7.0</ele><time>2026-04-02T03:48:21Z</time></trkpt><trkpt lat="14.553567569906987" lon="120.99417170654083"><ele>7.000000000000001</ele><time>2026-04-02T03:48:23Z</time></trkpt><trkpt lat="14.55345458367684" lon="120.99415528706277"><ele>7.0</ele><time>2026-04-02T03:48:26Z</time></trkpt><trkpt lat="14.553395682692598" lon="120.9942153503352"><ele>7.0</ele><time>2026-04-02T03:48:28Z</time></trkpt><trkpt lat="14.553386791042463" lon="120.99429569894696"><ele>7.0</ele><time>2026-04-02T03:48:29Z</time></trkpt><trkpt lat="14.553398731643776" lon="120.99438112962008"><ele>7.000000000000001</ele><time>2026-04-02T03:48:30Z</time></trkpt><trkpt lat="14.553408246981562" lon="120.99445867961427"><ele>7.0</ele><time>2026-04-02T03:48:31Z</time></trkpt><trkpt lat="14.553417719497775" lon="120.99454069239948"><ele>7.0</ele><time>2026-04-02T03:48:32Z</time></trkpt><trkpt lat="14.553427843776067" lon="120.99463392955339"><ele>6.999999999999999</ele><time>2026-04-02T03:48:33Z</time></trkpt><trkpt lat="14.553438283851973" lon="120.99473172026828"><ele>6.999999999999999</ele><time>2026-04-02T03:48:34Z</time></trkpt><trkpt lat="14.553453265830782" lon="120.99484217237091"><ele>7.0</ele><time>2026-04-02T03:48:35Z</time></trkpt><trkpt lat="14.553469018729922" lon="120.9949504859057"><ele>7.0</ele><time>2026-04-02T03:48:36Z</time></trkpt><trkpt lat="14.553485989852518" lon="120.99506717573708"><ele>8.5</ele><time>2026-04-02T03:48:37Z</time></trkpt><trkpt lat="14.553502943644096" lon="120.99518374638944"><ele>10.0</ele><time>2026-04-02T03:48:38Z</time></trkpt><trkpt lat="14.553523762745973" lon="120.99529658054372"><ele>11.5</ele><time>2026-04-02T03:48:39Z</time></trkpt><trkpt lat="14.553549466505373" lon="120.99541666713321"><ele>13.0</ele><time>2026-04-02T03:48:40Z</time></trkpt><trkpt lat="14.553575597228328" lon="120.99553416702521"><ele>13.0</ele><time>2026-04-02T03:48:41Z</time></trkpt><trkpt lat="14.553614550995096" lon="120.99564701458439"><ele>13.0</ele><time>2026-04-02T03:48:42Z</time></trkpt><trkpt lat="14.553639754760098" lon="120.99576886145552"><ele>13.0</ele><time>2026-04-02T03:48:43Z</time></trkpt><trkpt lat="14.553657699222068" lon="120.99588901911932"><ele>13.0</ele><time>2026-04-02T03:48:44Z</time></trkpt><trkpt lat="14.553679514733886" lon="120.99601700690049"><ele>13.600000000000001</ele><time>2026-04-02T03:48:45Z</time></trkpt><trkpt lat="14.553704986211622" lon="120.996137412517"><ele>14.200000000000001</ele><time>2026-04-02T03:48:46Z</time></trkpt><trkpt lat="14.553730583647164" lon="120.99625645451538"><ele>14.8</ele><time>2026-04-02T03:48:47Z</time></trkpt><trkpt lat="14.553750879300381" lon="120.9963576135549"><ele>15.4</ele><time>2026-04-02T03:48:48Z</time></trkpt><trkpt lat="14.553773540153532" lon="120.9964609608053"><ele>16.0</ele><time>2026-04-02T03:48:49Z</time></trkpt><trkpt lat="14.553798982788999" lon="120.99656270985581"><ele>14.600000000000001</ele><time>2026-04-02T03:48:50Z</time></trkpt><trkpt lat="14.55381800919282" lon="120.99665799547404"><ele>13.200000000000001</ele><time>2026-04-02T03:48:51Z</time></trkpt><trkpt lat="14.55384098405904" lon="120.99676114158376"><ele>11.8</ele><time>2026-04-02T03:48:52Z</time></trkpt><trkpt lat="14.55386574638013" lon="120.99686194324232"><ele>10.4</ele><time>2026-04-02T03:48:53Z</time></trkpt><trkpt lat="14.553891059157994" lon="120.99696075121132"><ele>9.0</ele><time>2026-04-02T03:48:54Z</time></trkpt><trkpt lat="14.553911302134177" lon="120.99705057055675"><ele>8.6</ele><time>2026-04-02T03:48:55Z</time></trkpt><trkpt lat="14.553935377970275" lon="120.99714646986473"><ele>8.2</ele><time>2026-04-02T03:48:56Z</time></trkpt><trkpt lat="14.553959955352278" lon="120.99725275888956"><ele>7.799999999999999</ele><time>2026-04-02T03:48:57Z</time></trkpt><trkpt lat="14.55397554985533" lon="120.99733786543433"><ele>7.3999999999999995</ele><time>2026-04-02T03:48:58Z</time></trkpt><trkpt lat="14.553999878991565" lon="120.99742572961662"><ele>7.0</ele><time>2026-04-02T03:48:59Z</time></trkpt><trkpt lat="14.55402987407997" lon="120.99752451863614"><ele>7.0</ele><time>2026-04-02T03:49:00Z</time></trkpt><trkpt lat="14.554048541072282" lon="120.99761765895016"><ele>6.999999999999999</ele><time>2026-04-02T03:49:01Z</time></trkpt><trkpt lat="14.554067945712314" lon="120.99771869027559"><ele>6.999999999999999</ele><time>2026-04-02T03:49:02Z</time></trkpt><trkpt lat="14.554091055263461" lon="120.99782105125841"><ele>7.0</ele><time>2026-04-02T03:49:03Z</time></trkpt><trkpt lat="14.554116843544824" lon="120.99792844561075"><ele>7.0</ele><time>2026-04-02T03:49:04Z</time></trkpt><trkpt lat="14.554142244259289" lon="120.99803624564152"><ele>7.0</ele><time>2026-04-02T03:49:05Z</time></trkpt><trkpt lat="14.55417548553406" lon="120.99814456210568"><ele>7.0</ele><time>2026-04-02T03:49:06Z</time></trkpt><trkpt lat="14.554204974176603" lon="120.99826055639562"><ele>7.0</ele><time>2026-04-02T03:49:07Z</time></trkpt><trkpt lat="14.554234624104543" lon="120.99837956799364"><ele>7.0</ele><time>2026-04-02T03:49:08Z</time></trkpt><trkpt lat="14.554269264377803" lon="120.99849761774335"><ele>7.0</ele><time>2026-04-02T03:49:09Z</time></trkpt><trkpt lat="14.55430331279667" lon="120.99861590285849"><ele>7.0</ele><time>2026-04-02T03:49:10Z</time></trkpt><trkpt lat="14.554343886718867" lon="120.99873588816607"><ele>7.0</ele><time>2026-04-02T03:49:11Z</time></trkpt><trkpt lat="14.554377208322956" lon="120.99886155716352"><ele>7.0</ele><time>2026-04-02T03:49:12Z</time></trkpt><trkpt lat="14.554410753246948" lon="120.99898332204134"><ele>7.0</ele><time>2026-04-02T03:49:13Z</time></trkpt><trkpt lat="14.554444459162314" lon="120.99910729431794"><ele>7.0</ele><time>2026-04-02T03:49:14Z</time></trkpt><trkpt lat="14.554476903923112" lon="120.99923414372388"><ele>7.0</ele><time>2026-04-02T03:49:15Z</time></trkpt><trkpt lat="14.554511337075555" lon="120.99935065822115"><ele>7.0</ele><time>2026-04-02T03:49:16Z</time></trkpt><trkpt lat="14.554543512640423" lon="120.99947755190287"><ele>7.0</ele><time>2026-04-02T03:49:17Z</time></trkpt><trkpt lat="14.554574864321484" lon="120.99959935805133"><ele>7.0</ele><time>2026-04-02T03:49:18Z</time></trkpt><trkpt lat="14.554603915009384" lon="120.99971863434098"><ele>7.0</ele><time>2026-04-02T03:49:19Z</time></trkpt><trkpt lat="14.554632540532866" lon="120.99983514200186"><ele>7.0</ele><time>2026-04-02T03:49:20Z</time></trkpt><trkpt lat="14.554658316962364" lon="120.99994643411222"><ele>7.0</ele><time>2026-04-02T03:49:21Z</time></trkpt><trkpt lat="14.554688733160965" lon="121.00004899278808"><ele>6.999999999999999</ele><time>2026-04-02T03:49:22Z</time></trkpt><trkpt lat="14.554714783856925" lon="121.00015094185824"><ele>6.999999999999999</ele><time>2026-04-02T03:49:23Z</time></trkpt><trkpt lat="14.554756942660452" lon="121.00025366819956"><ele>7.0</ele><time>2026-04-02T03:49:24Z</time></trkpt><trkpt lat="14.554814973691338" lon="121.00035169266104"><ele>7.0</ele><time>2026-04-02T03:49:25Z</time></trkpt><trkpt lat="14.55483728015009" lon="121.00045791012404"><ele>7.0</ele><time>2026-04-02T03:49:26Z</time></trkpt><trkpt lat="14.55488012357371" lon="121.0005629551616"><ele>7.0</ele><time>2026-04-02T03:49:27Z</time></trkpt><trkpt lat="14.554926690451175" lon="121.00066811130056"><ele>7.0</ele><time>2026-04-02T03:49:28Z</time></trkpt><trkpt lat="14.554975365239901" lon="121.00077189843408"><ele>7.0</ele><time>2026-04-02T03:49:29Z</time></trkpt><trkpt lat="14.555020019854" lon="121.00088427735214"><ele>7.25</ele><time>2026-04-02T03:49:30Z</time></trkpt><trkpt lat="14.555046868557115" lon="121.00099256336726"><ele>7.5</ele><time>2026-04-02T03:49:31Z</time></trkpt><trkpt lat="14.555062150541815" lon="121.00110479480644"><ele>7.75</ele><time>2026-04-02T03:49:32Z</time></trkpt><trkpt lat="14.555066536652847" lon="121.00122836064902"><ele>8.0</ele><time>2026-04-02T03:49:33Z</time></trkpt><trkpt lat="14.555047838852083" lon="121.00134663900273"><ele>8.0</ele><time>2026-04-02T03:49:34Z</time></trkpt><trkpt lat="14.555011428290374" lon="121.00145352066927"><ele>8.0</ele><time>2026-04-02T03:49:35Z</time></trkpt><trkpt lat="14.554959413947074" lon="121.0015554641647"><ele>8.0</ele><time>2026-04-02T03:49:36Z</time></trkpt><trkpt lat="14.554895548540955" lon="121.0016459193848"><ele>8.0</ele><time>2026-04-02T03:49:37Z</time></trkpt><trkpt lat="14.55482990255276" lon="121.00172001557671"><ele>8.0</ele><time>2026-04-02T03:49:38Z</time></trkpt><trkpt lat="14.554778021074487" lon="121.00178105734388"><ele>8.0</ele><time>2026-04-02T03:49:39Z</time></trkpt><trkpt lat="14.554751903948935" lon="121.00184060691866"><ele>8.0</ele><time>2026-04-02T03:49:40Z</time></trkpt><trkpt lat="14.55466330087001" lon="121.00194271586946"><ele>8.0</ele><time>2026-04-02T03:49:43Z</time></trkpt><trkpt lat="14.554730083484703" lon="121.00205580472944"><ele>8.0</ele><time>2026-04-02T03:49:44Z</time></trkpt><trkpt lat="14.554743212129313" lon="121.00212417262871"><ele>8.0</ele><time>2026-04-02T03:49:45Z</time></trkpt><trkpt lat="14.554764416802264" lon="121.00220500362794"><ele>7.999999999999999</ele><time>2026-04-02T03:49:46Z</time></trkpt><trkpt lat="14.55478659310772" lon="121.00228105514178"><ele>8.0</ele><time>2026-04-02T03:49:47Z</time></trkpt><trkpt lat="14.554812371024527" lon="121.00235654242442"><ele>8.0</ele><time>2026-04-02T03:49:48Z</time></trkpt><trkpt lat="14.554841274879962" lon="121.00243818948279"><ele>8.0</ele><time>2026-04-02T03:49:49Z</time></trkpt><trkpt lat="14.554873241549243" lon="121.00252193024168"><ele>7.999999999999999</ele><time>2026-04-02T03:49:50Z</time></trkpt><trkpt lat="14.5549063875686" lon="121.00261736402697"><ele>8.0</ele><time>2026-04-02T03:49:51Z</time></trkpt><trkpt lat="14.554937723623434" lon="121.002718835762"><ele>8.0</ele><time>2026-04-02T03:49:52Z</time></trkpt><trkpt lat="14.554969272317717" lon="121.00282352560936"><ele>8.0</ele><time>2026-04-02T03:49:53Z</time></trkpt><trkpt lat="14.555002710272294" lon="121.00293245858558"><ele>8.0</ele><time>2026-04-02T03:49:54Z</time></trkpt><trkpt lat="14.555038035836457" lon="121.00304227040104"><ele>8.0</ele><time>2026-04-02T03:49:55Z</time></trkpt><trkpt lat="14.555072347512187" lon="121.00315341692136"><ele>8.0</ele><time>2026-04-02T03:49:56Z</time></trkpt><trkpt lat="14.555110873091312" lon="121.00327154839347"><ele>8.0</ele><time>2026-04-02T03:49:57Z</time></trkpt><trkpt lat="14.555146138320662" lon="121.00339553508636"><ele>8.0</ele><time>2026-04-02T03:49:58Z</time></trkpt><trkpt lat="14.555186050578286" lon="121.00351924308832"><ele>8.0</ele><time>2026-04-02T03:49:59Z</time></trkpt><trkpt lat="14.555219830559867" lon="121.00364219337185"><ele>8.0</ele><time>2026-04-02T03:50:00Z</time></trkpt><trkpt lat="14.555252636501148" lon="121.00376923823222"><ele>8.0</ele><time>2026-04-02T03:50:01Z</time></trkpt><trkpt lat="14.555298758134162" lon="121.0038849476018"><ele>8.0</ele><time>2026-04-02T03:50:02Z</time></trkpt><trkpt lat="14.55534096944753" lon="121.0039869558207"><ele>8.0</ele><time>2026-04-02T03:50:03Z</time></trkpt><trkpt lat="14.555379752658586" lon="121.0040731761855"><ele>8.0</ele><time>2026-04-02T03:50:04Z</time></trkpt><trkpt lat="14.555411420304514" lon="121.00413769892826"><ele>8.0</ele><time>2026-04-02T03:50:05Z</time></trkpt><trkpt lat="14.55544685545156" lon="121.00423350789329"><ele>8.0</ele><time>2026-04-02T03:50:13Z</time></trkpt><trkpt lat="14.55548851174848" lon="121.00434789728156"><ele>8.0</ele><time>2026-04-02T03:50:15Z</time></trkpt><trkpt lat="14.555520256583653" lon="121.00442180476247"><ele>8.0</ele><time>2026-04-02T03:50:16Z</time></trkpt><trkpt lat="14.555555806235548" lon="121.00449910935811"><ele>8.0</ele><time>2026-04-02T03:50:17Z</time></trkpt><trkpt lat="14.555591461518572" lon="121.00458980786253"><ele>8.0</ele><time>2026-04-02T03:50:18Z</time></trkpt><trkpt lat="14.555633066295139" lon="121.00468403285318"><ele>8.0</ele><time>2026-04-02T03:50:19Z</time></trkpt><trkpt lat="14.555676563674" lon="121.00477779865129"><ele>8.0</ele><time>2026-04-02T03:50:20Z</time></trkpt><trkpt lat="14.55572323064737" lon="121.00488209859996"><ele>8.0</ele><time>2026-04-02T03:50:21Z</time></trkpt><trkpt lat="14.555767114179995" lon="121.00498317458559"><ele>8.0</ele><time>2026-04-02T03:50:22Z</time></trkpt><trkpt lat="14.555820441754204" lon="121.00508932505247"><ele>8.0</ele><time>2026-04-02T03:50:23Z</time></trkpt><trkpt lat="14.55587294254077" lon="121.00519799144085"><ele>8.0</ele><time>2026-04-02T03:50:24Z</time></trkpt><trkpt lat="14.55591919413198" lon="121.00531369876786"><ele>8.0</ele><time>2026-04-02T03:50:25Z</time></trkpt><trkpt lat="14.555982669155112" lon="121.00542886144785"><ele>8.0</ele><time>2026-04-02T03:50:26Z</time></trkpt><trkpt lat="14.556043045145385" lon="121.00553199852125"><ele>8.0</ele><time>2026-04-02T03:50:27Z</time></trkpt><trkpt lat="14.55610018707489" lon="121.00563547851554"><ele>7.999999999999999</ele><time>2026-04-02T03:50:28Z</time></trkpt><trkpt lat="14.556139455956025" lon="121.0057207431961"><ele>8.0</ele><time>2026-04-02T03:50:29Z</time></trkpt><trkpt lat="14.556168643246451" lon="121.00578030707393"><ele>8.0</ele><time>2026-04-02T03:50:30Z</time></trkpt><trkpt lat="14.556203226223198" lon="121.00584808871814"><ele>8.0</ele><time>2026-04-02T03:50:32Z</time></trkpt><trkpt lat="14.556257815597963" lon="121.00594224260443"><ele>7.999999999999999</ele><time>2026-04-02T03:50:35Z</time></trkpt><trkpt lat="14.556289464466198" lon="121.00599907822422"><ele>8.0</ele><time>2026-04-02T03:50:36Z</time></trkpt><trkpt lat="14.55633119390023" lon="121.00605690998106"><ele>8.200000000000001</ele><time>2026-04-02T03:50:37Z</time></trkpt><trkpt lat="14.556364793031356" lon="121.00613715116972"><ele>8.4</ele><time>2026-04-02T03:50:38Z</time></trkpt><trkpt lat="14.556392038370504" lon="121.00622387946122"><ele>8.600000000000001</ele><time>2026-04-02T03:50:39Z</time></trkpt><trkpt lat="14.556439700071195" lon="121.00630784965875"><ele>8.8</ele><time>2026-04-02T03:50:40Z</time></trkpt><trkpt lat="14.556487701652372" lon="121.00639560088894"><ele>9.0</ele><time>2026-04-02T03:50:41Z</time></trkpt><trkpt lat="14.55653253860374" lon="121.00648643049749"><ele>9.0</ele><time>2026-04-02T03:50:42Z</time></trkpt><trkpt lat="14.556578209020644" lon="121.00657871763973"><ele>9.0</ele><time>2026-04-02T03:50:43Z</time></trkpt><trkpt lat="14.5566236743886" lon="121.0066719164593"><ele>9.0</ele><time>2026-04-02T03:50:44Z</time></trkpt><trkpt lat="14.556672452865651" lon="121.00676610620688"><ele>9.0</ele><time>2026-04-02T03:50:45Z</time></trkpt><trkpt lat="14.556718357390336" lon="121.00685792344878"><ele>9.0</ele><time>2026-04-02T03:50:46Z</time></trkpt><trkpt lat="14.556767041237812" lon="121.0069538241502"><ele>8.5</ele><time>2026-04-02T03:50:47Z</time></trkpt><trkpt lat="14.556813417533512" lon="121.00704652279428"><ele>8.0</ele><time>2026-04-02T03:50:48Z</time></trkpt><trkpt lat="14.556860485863691" lon="121.00713182141416"><ele>7.5</ele><time>2026-04-02T03:50:49Z</time></trkpt><trkpt lat="14.556898856849964" lon="121.00720887169662"><ele>7.0</ele><time>2026-04-02T03:50:50Z</time></trkpt><trkpt lat="14.556933644818743" lon="121.00727619332902"><ele>6.5</ele><time>2026-04-02T03:50:51Z</time></trkpt><trkpt lat="14.556987333079453" lon="121.0073499008188"><ele>6.0</ele><time>2026-04-02T03:50:53Z</time></trkpt><trkpt lat="14.557028495103108" lon="121.00743620744392"><ele>6.166666666666667</ele><time>2026-04-02T03:52:36Z</time></trkpt><trkpt lat="14.557062874749022" lon="121.007505396555"><ele>6.333333333333334</ele><time>2026-04-02T03:52:38Z</time></trkpt><trkpt lat="14.55707771869738" lon="121.00757891169579"><ele>6.5</ele><time>2026-04-02T03:52:40Z</time></trkpt><trkpt lat="14.557131541160402" lon="121.00763872361752"><ele>6.666666666666667</ele><time>2026-04-02T03:52:43Z</time></trkpt><trkpt lat="14.557125778250748" lon="121.00771911803646"><ele>6.833333333333334</ele><time>2026-04-02T03:52:45Z</time></trkpt><trkpt lat="14.557076446883789" lon="121.0077813392381"><ele>7.0</ele><time>2026-04-02T03:52:48Z</time></trkpt><trkpt lat="14.557142568219799" lon="121.00774479647846"><ele>6.6</ele><time>2026-04-02T03:52:49Z</time></trkpt><trkpt lat="14.556997892141165" lon="121.00782089892076"><ele>6.199999999999999</ele><time>2026-04-02T03:52:50Z</time></trkpt><trkpt lat="14.556971804907137" lon="121.00789204968747"><ele>5.8</ele><time>2026-04-02T03:52:51Z</time></trkpt><trkpt lat="14.556952733057386" lon="121.00796903484681"><ele>5.4</ele><time>2026-04-02T03:52:53Z</time></trkpt><trkpt lat="14.556967324534455" lon="121.00804098837325"><ele>5.0</ele><time>2026-04-02T03:52:54Z</time></trkpt><trkpt lat="14.556938040770792" lon="121.00815146634018"><ele>5.0</ele><time>2026-04-02T03:52:56Z</time></trkpt><trkpt lat="14.556939292515919" lon="121.00825785489383"><ele>5.0</ele><time>2026-04-02T03:52:58Z</time></trkpt><trkpt lat="14.556985539507034" lon="121.00836576863567"><ele>5.0</ele><time>2026-04-02T03:53:00Z</time></trkpt><trkpt lat="14.557024727330159" lon="121.00849354550711"><ele>5.0</ele><time>2026-04-02T03:53:02Z</time></trkpt><trkpt lat="14.557049634215264" lon="121.00856813562238"><ele>5.0</ele><time>2026-04-02T03:53:03Z</time></trkpt><trkpt lat="14.557072037683673" lon="121.00864252721345"><ele>5.833333333333334</ele><time>2026-04-02T03:53:04Z</time></trkpt><trkpt lat="14.557094590238538" lon="121.008720775477"><ele>6.666666666666667</ele><time>2026-04-02T03:53:05Z</time></trkpt><trkpt lat="14.557118765426894" lon="121.00880061488301"><ele>7.5</ele><time>2026-04-02T03:53:06Z</time></trkpt><trkpt lat="14.557143294650565" lon="121.00888090046534"><ele>8.333333333333334</ele><time>2026-04-02T03:53:07Z</time></trkpt><trkpt lat="14.557169897591356" lon="121.00895737986785"><ele>9.166666666666668</ele><time>2026-04-02T03:53:08Z</time></trkpt><trkpt lat="14.557200522442534" lon="121.00903361438318"><ele>10.0</ele><time>2026-04-02T03:53:09Z</time></trkpt><trkpt lat="14.557231427840213" lon="121.00911237788982"><ele>10.5</ele><time>2026-04-02T03:53:10Z</time></trkpt><trkpt lat="14.557261437996727" lon="121.00918771196055"><ele>11.0</ele><time>2026-04-02T03:53:11Z</time></trkpt><trkpt lat="14.557286483817283" lon="121.00926165205975"><ele>11.5</ele><time>2026-04-02T03:53:12Z</time></trkpt><trkpt lat="14.557305225108944" lon="121.00932581385008"><ele>12.0</ele><time>2026-04-02T03:53:13Z</time></trkpt><trkpt lat="14.557332051082298" lon="121.00939548075743"><ele>12.499999999999998</ele><time>2026-04-02T03:53:14Z</time></trkpt><trkpt lat="14.557360407133785" lon="121.00947570368484"><ele>13.0</ele><time>2026-04-02T03:53:15Z</time></trkpt><trkpt lat="14.557386525785123" lon="121.00955854009254"><ele>13.0</ele><time>2026-04-02T03:53:16Z</time></trkpt><trkpt lat="14.557409551789648" lon="121.00965352545724"><ele>13.0</ele><time>2026-04-02T03:53:17Z</time></trkpt><trkpt lat="14.557415613155882" lon="121.00975845218265"><ele>13.0</ele><time>2026-04-02T03:53:18Z</time></trkpt><trkpt lat="14.557467287745801" lon="121.00982981730759"><ele>13.0</ele><time>2026-04-02T03:53:19Z</time></trkpt><trkpt lat="14.557508789510553" lon="121.00992050568473"><ele>13.0</ele><time>2026-04-02T03:53:20Z</time></trkpt><trkpt lat="14.557534374839516" lon="121.01002033060414"><ele>12.0</ele><time>2026-04-02T03:53:21Z</time></trkpt><trkpt lat="14.55756515296615" lon="121.01011932562831"><ele>11.0</ele><time>2026-04-02T03:53:22Z</time></trkpt><trkpt lat="14.557596407915831" lon="121.01021819637465"><ele>10.0</ele><time>2026-04-02T03:53:23Z</time></trkpt><trkpt lat="14.557634622184633" lon="121.01031798951635"><ele>9.0</ele><time>2026-04-02T03:53:24Z</time></trkpt><trkpt lat="14.557661676584727" lon="121.01040796959565"><ele>8.0</ele><time>2026-04-02T03:53:25Z</time></trkpt><trkpt lat="14.557689143931368" lon="121.01048495944532"><ele>8.0</ele><time>2026-04-02T03:53:26Z</time></trkpt><trkpt lat="14.55771851400687" lon="121.01058256963216"><ele>8.0</ele><time>2026-04-02T03:53:27Z</time></trkpt><trkpt lat="14.557742770526483" lon="121.01066945261611"><ele>8.0</ele><time>2026-04-02T03:53:28Z</time></trkpt><trkpt lat="14.557771767489735" lon="121.01075848096443"><ele>8.0</ele><time>2026-04-02T03:53:29Z</time></trkpt><trkpt lat="14.557804470205562" lon="121.01085393546272"><ele>8.0</ele><time>2026-04-02T03:53:30Z</time></trkpt><trkpt lat="14.557829672256695" lon="121.01095358746448"><ele>8.200000000000001</ele><time>2026-04-02T03:53:31Z</time></trkpt><trkpt lat="14.557860315113054" lon="121.0110622690588"><ele>8.4</ele><time>2026-04-02T03:53:32Z</time></trkpt><trkpt lat="14.557888552536937" lon="121.01116707924031"><ele>8.600000000000001</ele><time>2026-04-02T03:53:33Z</time></trkpt><trkpt lat="14.55793179243166" lon="121.01125730610723"><ele>8.8</ele><time>2026-04-02T03:53:34Z</time></trkpt><trkpt lat="14.55796051852224" lon="121.01134877495481"><ele>9.0</ele><time>2026-04-02T03:53:35Z</time></trkpt><trkpt lat="14.55799211592647" lon="121.01144938658949"><ele>9.0</ele><time>2026-04-02T03:53:36Z</time></trkpt><trkpt lat="14.558018735009611" lon="121.01153414667901"><ele>9.0</ele><time>2026-04-02T03:53:37Z</time></trkpt><trkpt lat="14.55803188293069" lon="121.01162826294768"><ele>9.0</ele><time>2026-04-02T03:53:38Z</time></trkpt><trkpt lat="14.558069195927713" lon="121.01169489239692"><ele>9.0</ele><time>2026-04-02T03:53:39Z</time></trkpt><trkpt lat="14.558082616318039" lon="121.01177619515487"><ele>9.0</ele><time>2026-04-02T03:53:40Z</time></trkpt><trkpt lat="14.558116310714267" lon="121.01184496047931"><ele>9.0</ele><time>2026-04-02T03:53:41Z</time></trkpt><trkpt lat="14.558138511448343" lon="121.01191567335154"><ele>8.714285714285715</ele><time>2026-04-02T03:53:42Z</time></trkpt><trkpt lat="14.558158023038622" lon="121.0119778212162"><ele>8.428571428571429</ele><time>2026-04-02T03:53:43Z</time></trkpt><trkpt lat="14.558159814275493" lon="121.01204840767797"><ele>8.142857142857142</ele><time>2026-04-02T03:53:44Z</time></trkpt><trkpt lat="14.55817906921876" lon="121.01211394738235"><ele>7.857142857142858</ele><time>2026-04-02T03:53:45Z</time></trkpt><trkpt lat="14.55820411763761" lon="121.01218969098765"><ele>7.571428571428571</ele><time>2026-04-02T03:53:46Z</time></trkpt><trkpt lat="14.558221666507718" lon="121.01226496664808"><ele>7.285714285714286</ele><time>2026-04-02T03:53:47Z</time></trkpt><trkpt lat="14.558240536956083" lon="121.01234068010078"><ele>7.0</ele><time>2026-04-02T03:53:48Z</time></trkpt><trkpt lat="14.558257066105902" lon="121.01241129150365"><ele>7.8</ele><time>2026-04-02T03:53:49Z</time></trkpt><trkpt lat="14.558288916766129" lon="121.01250040211569"><ele>8.6</ele><time>2026-04-02T03:53:51Z</time></trkpt><trkpt lat="14.558305089849378" lon="121.01258822431127"><ele>9.4</ele><time>2026-04-02T03:53:53Z</time></trkpt><trkpt lat="14.558233075216657" lon="121.01271375889655"><ele>10.200000000000001</ele><time>2026-04-02T03:53:56Z</time></trkpt><trkpt lat="14.558145616658347" lon="121.01272812952685"><ele>11.0</ele><time>2026-04-02T03:53:57Z</time></trkpt><trkpt lat="14.558069801976801" lon="121.01276480072234"><ele>11.0</ele><time>2026-04-02T03:53:58Z</time></trkpt><trkpt lat="14.557992970865369" lon="121.01280647403804"><ele>11.0</ele><time>2026-04-02T03:53:59Z</time></trkpt><trkpt lat="14.557902373334107" lon="121.01285755086988"><ele>11.0</ele><time>2026-04-02T03:54:00Z</time></trkpt><trkpt lat="14.557819220574666" lon="121.01289859359885"><ele>11.0</ele><time>2026-04-02T03:54:01Z</time></trkpt><trkpt lat="14.55772795461345" lon="121.01294646670421"><ele>11.0</ele><time>2026-04-02T03:54:02Z</time></trkpt><trkpt lat="14.55762930559159" lon="121.0129942627283"><ele>10.5</ele><time>2026-04-02T03:54:03Z</time></trkpt><trkpt lat="14.55752694980594" lon="121.0130432016592"><ele>10.0</ele><time>2026-04-02T03:54:04Z</time></trkpt><trkpt lat="14.55741700938968" lon="121.01308146710713"><ele>9.5</ele><time>2026-04-02T03:54:05Z</time></trkpt><trkpt lat="14.557307029271088" lon="121.01311456566597"><ele>9.0</ele><time>2026-04-02T03:54:06Z</time></trkpt><trkpt lat="14.557181935939752" lon="121.01314277478845"><ele>9.0</ele><time>2026-04-02T03:54:07Z</time></trkpt><trkpt lat="14.557060111786505" lon="121.0131687222865"><ele>9.0</ele><time>2026-04-02T03:54:08Z</time></trkpt><trkpt lat="14.556932296510052" lon="121.0132009147844"><ele>9.0</ele><time>2026-04-02T03:54:09Z</time></trkpt><trkpt lat="14.556803956643009" lon="121.0132278842903"><ele>9.0</ele><time>2026-04-02T03:54:10Z</time></trkpt><trkpt lat="14.556672871435776" lon="121.01326002496326"><ele>9.5</ele><time>2026-04-02T03:54:11Z</time></trkpt><trkpt lat="14.55653822054216" lon="121.01328304474396"><ele>10.0</ele><time>2026-04-02T03:54:12Z</time></trkpt><trkpt lat="14.556403706616535" lon="121.01330538406985"><ele>10.5</ele><time>2026-04-02T03:54:13Z</time></trkpt><trkpt lat="14.556261839672075" lon="121.0133310188587"><ele>11.0</ele><time>2026-04-02T03:54:14Z</time></trkpt><trkpt lat="14.556125544903267" lon="121.01335662029246"><ele>11.0</ele><time>2026-04-02T03:54:15Z</time></trkpt><trkpt lat="14.55599154685588" lon="121.01338155377954"><ele>11.0</ele><time>2026-04-02T03:54:16Z</time></trkpt><trkpt lat="14.555866481571464" lon="121.01340457926231"><ele>11.0</ele><time>2026-04-02T03:54:17Z</time></trkpt><trkpt lat="14.555750620351532" lon="121.01342435088236"><ele>11.0</ele><time>2026-04-02T03:54:18Z</time></trkpt><trkpt lat="14.555644530390737" lon="121.01344373541785"><ele>11.0</ele><time>2026-04-02T03:54:19Z</time></trkpt><trkpt lat="14.55555510309062" lon="121.01346191360417"><ele>11.0</ele><time>2026-04-02T03:54:20Z</time></trkpt><trkpt lat="14.555462783625321" lon="121.01347688055807"><ele>11.0</ele><time>2026-04-02T03:54:21Z</time></trkpt><trkpt lat="14.555382058769098" lon="121.01348783983617"><ele>11.0</ele><time>2026-04-02T03:54:22Z</time></trkpt><trkpt lat="14.555303594774399" lon="121.01349833267479"><ele>11.0</ele><time>2026-04-02T03:54:23Z</time></trkpt><trkpt lat="14.555203931017548" lon="121.013518996449"><ele>11.0</ele><time>2026-04-02T03:54:25Z</time></trkpt><trkpt lat="14.555136525382101" lon="121.01353685640545"><ele>11.0</ele><time>2026-04-02T03:54:29Z</time></trkpt><trkpt lat="14.555063608797349" lon="121.0135803674726"><ele>11.0</ele><time>2026-04-02T03:54:33Z</time></trkpt><trkpt lat="14.555006598185066" lon="121.01351843800909"><ele>11.0</ele><time>2026-04-02T03:54:36Z</time></trkpt><trkpt lat="14.554978497161423" lon="121.01342289698731"><ele>11.0</ele><time>2026-04-02T03:54:38Z</time></trkpt><trkpt lat="14.554965736052246" lon="121.01332131348252"><ele>11.0</ele><time>2026-04-02T03:54:40Z</time></trkpt><trkpt lat="14.55494279056749" lon="121.01323133630376"><ele>11.0</ele><time>2026-04-02T03:54:42Z</time></trkpt><trkpt lat="14.554928969484372" lon="121.01314042539357"><ele>11.0</ele><time>2026-04-02T03:54:44Z</time></trkpt><trkpt lat="14.554911996907235" lon="121.01305378581381"><ele>11.0</ele><time>2026-04-02T03:54:46Z</time></trkpt><trkpt lat="14.554881952877436" lon="121.01295726563565"><ele>11.0</ele><time>2026-04-02T03:54:48Z</time></trkpt><trkpt lat="14.554864493680396" lon="121.0128635382556"><ele>11.0</ele><time>2026-04-02T03:54:50Z</time></trkpt><trkpt lat="14.554857646851739" lon="121.01276495730932"><ele>11.0</ele><time>2026-04-02T03:54:53Z</time></trkpt><trkpt lat="14.554865787116327" lon="121.01269223264191"><ele>11.0</ele><time>2026-04-02T03:54:59Z</time></trkpt><trkpt lat="14.554788255526041" lon="121.01270211801317"><ele>11.0</ele><time>2026-04-02T03:58:30Z</time></trkpt><trkpt lat="14.554769265065946" lon="121.01262100018631"><ele>11.0</ele><time>2026-04-02T03:59:07Z</time></trkpt><trkpt lat="14.554767359552912" lon="121.01254226006134"><ele>11.0</ele><time>2026-04-02T03:59:09Z</time></trkpt><trkpt lat="14.554765145483644" lon="121.01246747770503"><ele>11.0</ele><time>2026-04-02T03:59:11Z</time></trkpt><trkpt lat="14.554761054141588" lon="121.01237827108264"><ele>10.833333333333332</ele><time>2026-04-02T03:59:13Z</time></trkpt><trkpt lat="14.554775638897402" lon="121.01230282814686"><ele>10.666666666666666</ele><time>2026-04-02T03:59:15Z</time></trkpt><trkpt lat="14.554791052830055" lon="121.0122393809027"><ele>10.5</ele><time>2026-04-02T03:59:45Z</time></trkpt><trkpt lat="14.554763884831441" lon="121.01216347186265"><ele>10.333333333333334</ele><time>2026-04-02T04:03:38Z</time></trkpt><trkpt lat="14.554760805614283" lon="121.01208561268527"><ele>10.166666666666668</ele><time>2026-04-02T04:03:40Z</time></trkpt><trkpt lat="14.554639812716667" lon="121.01201855944808"><ele>10.0</ele><time>2026-04-02T04:03:45Z</time></trkpt><trkpt lat="14.554537242284809" lon="121.01204307216004"><ele>10.0</ele><time>2026-04-02T04:03:47Z</time></trkpt><trkpt lat="14.554425985804196" lon="121.01206966071689"><ele>10.0</ele><time>2026-04-02T04:03:49Z</time></trkpt><trkpt lat="14.554310906432509" lon="121.01210342987616"><ele>10.0</ele><time>2026-04-02T04:03:51Z</time></trkpt><trkpt lat="14.554195581061393" lon="121.01212506168605"><ele>10.0</ele><time>2026-04-02T04:03:53Z</time></trkpt><trkpt lat="14.554079834354953" lon="121.01214791590041"><ele>10.0</ele><time>2026-04-02T04:03:55Z</time></trkpt><trkpt lat="14.553955439129052" lon="121.01217717844524"><ele>10.0</ele><time>2026-04-02T04:03:57Z</time></trkpt><trkpt lat="14.553838170813815" lon="121.01219585097853"><ele>10.0</ele><time>2026-04-02T04:03:59Z</time></trkpt><trkpt lat="14.553729731266165" lon="121.01221881191528"><ele>10.0</ele><time>2026-04-02T04:04:01Z</time></trkpt><trkpt lat="14.553663028657507" lon="121.01222416178703"><ele>10.0</ele><time>2026-04-02T04:04:02Z</time></trkpt><trkpt lat="14.55359309474921" lon="121.01222831471799"><ele>10.166666666666668</ele><time>2026-04-02T04:04:03Z</time></trkpt><trkpt lat="14.553520525776987" lon="121.01223226018067"><ele>10.333333333333334</ele><time>2026-04-02T04:04:04Z</time></trkpt><trkpt lat="14.553439563564055" lon="121.01222434125201"><ele>10.5</ele><time>2026-04-02T04:04:05Z</time></trkpt><trkpt lat="14.553369038001486" lon="121.01222510716909"><ele>10.666666666666666</ele><time>2026-04-02T04:04:06Z</time></trkpt><trkpt lat="14.553304537615604" lon="121.01222891864194"><ele>10.833333333333332</ele><time>2026-04-02T04:04:07Z</time></trkpt><trkpt lat="14.553203971408273" lon="121.01223246913906"><ele>11.0</ele><time>2026-04-02T04:04:09Z</time></trkpt><trkpt lat="14.553105143141579" lon="121.01221740212847"><ele>11.0</ele><time>2026-04-02T04:04:13Z</time></trkpt><trkpt lat="14.553035697984656" lon="121.0122132355512"><ele>11.0</ele><time>2026-04-02T04:04:15Z</time></trkpt><trkpt lat="14.552950851542588" lon="121.01220170139966"><ele>11.0</ele><time>2026-04-02T04:04:17Z</time></trkpt><trkpt lat="14.552840472473347" lon="121.01219329108763"><ele>11.0</ele><time>2026-04-02T04:04:19Z</time></trkpt><trkpt lat="14.552748060104687" lon="121.01217115110877"><ele>11.0</ele><time>2026-04-02T04:04:21Z</time></trkpt><trkpt lat="14.552651295401132" lon="121.01215335728705"><ele>10.8</ele><time>2026-04-02T04:04:24Z</time></trkpt><trkpt lat="14.552579854536836" lon="121.01214737214895"><ele>10.600000000000001</ele><time>2026-04-02T04:04:26Z</time></trkpt><trkpt lat="14.5524977134465" lon="121.01225053180974"><ele>10.4</ele><time>2026-04-02T04:04:31Z</time></trkpt><trkpt lat="14.552485615034275" lon="121.01231763215817"><ele>10.2</ele><time>2026-04-02T04:04:32Z</time></trkpt><trkpt lat="14.552463517097431" lon="121.01244019191854"><ele>10.0</ele><time>2026-04-02T04:04:34Z</time></trkpt><trkpt lat="14.552446805419054" lon="121.01253287836003"><ele>9.6</ele><time>2026-04-02T04:04:36Z</time></trkpt><trkpt lat="14.55238999870674" lon="121.01260622714767"><ele>9.2</ele><time>2026-04-02T04:04:38Z</time></trkpt><trkpt lat="14.552298892822973" lon="121.01256732418504"><ele>8.8</ele><time>2026-04-02T04:04:40Z</time></trkpt><trkpt lat="14.552229015453518" lon="121.01255341870186"><ele>8.4</ele><time>2026-04-02T04:04:41Z</time></trkpt><trkpt lat="14.552110159440858" lon="121.01250604531536"><ele>8.0</ele><time>2026-04-02T04:04:43Z</time></trkpt><trkpt lat="14.552029720760117" lon="121.01249642827436"><ele>7.833333333333333</ele><time>2026-04-02T04:04:44Z</time></trkpt><trkpt lat="14.551960293946637" lon="121.012473626399"><ele>7.666666666666666</ele><time>2026-04-02T04:04:45Z</time></trkpt><trkpt lat="14.551890363078476" lon="121.0124505983792"><ele>7.5</ele><time>2026-04-02T04:04:46Z</time></trkpt><trkpt lat="14.551820492871245" lon="121.0124275903278"><ele>7.333333333333334</ele><time>2026-04-02T04:04:47Z</time></trkpt><trkpt lat="14.551693160912082" lon="121.01238289585902"><ele>7.166666666666667</ele><time>2026-04-02T04:04:49Z</time></trkpt><trkpt lat="14.551640372375282" lon="121.01234592366582"><ele>7.0</ele><time>2026-04-02T04:04:50Z</time></trkpt><trkpt lat="14.551571062720429" lon="121.01233212378641"><ele>7.0</ele><time>2026-04-02T04:04:52Z</time></trkpt><trkpt lat="14.551523170409647" lon="121.01220245060698"><ele>6.999999999999999</ele><time>2026-04-02T04:04:56Z</time></trkpt><trkpt lat="14.551474259974745" lon="121.01209245260843"><ele>6.999999999999999</ele><time>2026-04-02T04:04:58Z</time></trkpt><trkpt lat="14.55145875237284" lon="121.01201112831818"><ele>7.0</ele><time>2026-04-02T04:04:59Z</time></trkpt><trkpt lat="14.551440633667967" lon="121.01191761071057"><ele>7.0</ele><time>2026-04-02T04:05:00Z</time></trkpt><trkpt lat="14.551426950387146" lon="121.01183877337911"><ele>7.000000000000001</ele><time>2026-04-02T04:05:01Z</time></trkpt><trkpt lat="14.551417354871932" lon="121.01176498300173"><ele>7.0</ele><time>2026-04-02T04:05:02Z</time></trkpt><trkpt lat="14.551403845152121" lon="121.01169596977495"><ele>7.0</ele><time>2026-04-02T04:05:03Z</time></trkpt><trkpt lat="14.551383332021459" lon="121.0115809788778"><ele>7.0</ele><time>2026-04-02T04:05:05Z</time></trkpt><trkpt lat="14.551369170328828" lon="121.01148755157877"><ele>7.000000000000001</ele><time>2026-04-02T04:05:07Z</time></trkpt><trkpt lat="14.551382210053214" lon="121.01141768371284"><ele>7.0</ele><time>2026-04-02T04:05:10Z</time></trkpt><trkpt lat="14.551356881058624" lon="121.01134306392082"><ele>7.285714285714286</ele><time>2026-04-02T04:05:13Z</time></trkpt><trkpt lat="14.55133519960404" lon="121.01127571370208"><ele>7.571428571428571</ele><time>2026-04-02T04:05:28Z</time></trkpt><trkpt lat="14.551305217337635" lon="121.01121186725801"><ele>7.857142857142858</ele><time>2026-04-02T04:05:31Z</time></trkpt><trkpt lat="14.551277145900217" lon="121.01114347614603"><ele>8.142857142857142</ele><time>2026-04-02T04:05:34Z</time></trkpt><trkpt lat="14.551244891198333" lon="121.01107262331604"><ele>8.428571428571429</ele><time>2026-04-02T04:05:37Z</time></trkpt><trkpt lat="14.551202592805673" lon="121.01099788757847"><ele>8.714285714285715</ele><time>2026-04-02T04:05:39Z</time></trkpt><trkpt lat="14.551137374385762" lon="121.01100736572864"><ele>9.0</ele><time>2026-04-02T04:05:41Z</time></trkpt><trkpt lat="14.550985699282858" lon="121.01108679055567"><ele>9.0</ele><time>2026-04-02T04:05:43Z</time></trkpt><trkpt lat="14.55091827777271" lon="121.0111642020544"><ele>9.0</ele><time>2026-04-02T04:05:44Z</time></trkpt><trkpt lat="14.550825003843059" lon="121.01121398638912"><ele>9.0</ele><time>2026-04-02T04:05:45Z</time></trkpt><trkpt lat="14.550726708369382" lon="121.01125853350959"><ele>9.0</ele><time>2026-04-02T04:05:46Z</time></trkpt><trkpt lat="14.550619163674213" lon="121.01131247721045"><ele>9.0</ele><time>2026-04-02T04:05:47Z</time></trkpt><trkpt lat="14.550511294706293" lon="121.0113697425303"><ele>9.0</ele><time>2026-04-02T04:05:48Z</time></trkpt><trkpt lat="14.550407860353529" lon="121.01144107105164"><ele>9.0</ele><time>2026-04-02T04:05:49Z</time></trkpt><trkpt lat="14.55028939559558" lon="121.01149649667688"><ele>9.0</ele><time>2026-04-02T04:05:50Z</time></trkpt><trkpt lat="14.550158461970895" lon="121.01154866532266"><ele>9.0</ele><time>2026-04-02T04:05:51Z</time></trkpt><trkpt lat="14.550029466762979" lon="121.01158207086014"><ele>8.75</ele><time>2026-04-02T04:05:52Z</time></trkpt><trkpt lat="14.54989575898453" lon="121.01163050359662"><ele>8.5</ele><time>2026-04-02T04:05:53Z</time></trkpt><trkpt lat="14.549767195924193" lon="121.01171499510593"><ele>8.25</ele><time>2026-04-02T04:05:54Z</time></trkpt><trkpt lat="14.549645941960987" lon="121.011791944209"><ele>8.0</ele><time>2026-04-02T04:05:55Z</time></trkpt><trkpt lat="14.549526261365084" lon="121.01186638894067"><ele>8.666666666666666</ele><time>2026-04-02T04:05:56Z</time></trkpt><trkpt lat="14.549396109630926" lon="121.01193624755288"><ele>9.333333333333334</ele><time>2026-04-02T04:05:57Z</time></trkpt><trkpt lat="14.54927048241269" lon="121.01201045204054"><ele>10.0</ele><time>2026-04-02T04:05:58Z</time></trkpt><trkpt lat="14.549125400733939" lon="121.01208843044621"><ele>10.0</ele><time>2026-04-02T04:05:59Z</time></trkpt><trkpt lat="14.548994975157377" lon="121.01215722789217"><ele>10.0</ele><time>2026-04-02T04:06:00Z</time></trkpt><trkpt lat="14.548849890550853" lon="121.01222384196541"><ele>10.0</ele><time>2026-04-02T04:06:01Z</time></trkpt><trkpt lat="14.548712766020044" lon="121.01229240438651"><ele>9.5</ele><time>2026-04-02T04:06:02Z</time></trkpt><trkpt lat="14.548583166326743" lon="121.01235729076252"><ele>9.0</ele><time>2026-04-02T04:06:03Z</time></trkpt><trkpt lat="14.548466722425562" lon="121.01241890365073"><ele>8.5</ele><time>2026-04-02T04:06:04Z</time></trkpt><trkpt lat="14.548326553501672" lon="121.01249689207503"><ele>8.0</ele><time>2026-04-02T04:06:05Z</time></trkpt><trkpt lat="14.54816401287417" lon="121.01258158251711"><ele>8.0</ele><time>2026-04-02T04:06:06.001Z</time></trkpt><trkpt lat="14.547911850546555" lon="121.01267049704518"><ele>8.0</ele><time>2026-04-02T04:06:07.001Z</time></trkpt><trkpt lat="14.547711353367987" lon="121.01274687375603"><ele>8.333333333333332</ele><time>2026-04-02T04:06:08.001Z</time></trkpt><trkpt lat="14.547559521750536" lon="121.0128515556466"><ele>8.666666666666666</ele><time>2026-04-02T04:06:09.001Z</time></trkpt><trkpt lat="14.547351803240765" lon="121.0129528383496"><ele>9.0</ele><time>2026-04-02T04:06:10Z</time></trkpt><trkpt lat="14.547192137934399" lon="121.01303959348576"><ele>10.5</ele><time>2026-04-02T04:06:10.999Z</time></trkpt><trkpt lat="14.547029507810967" lon="121.01315868257612"><ele>12.0</ele><time>2026-04-02T04:06:12Z</time></trkpt><trkpt lat="14.546801286808211" lon="121.0132836973284"><ele>12.333333333333332</ele><time>2026-04-02T04:06:13Z</time></trkpt><trkpt lat="14.54664634353781" lon="121.01337110577823"><ele>12.666666666666666</ele><time>2026-04-02T04:06:13.999Z</time></trkpt><trkpt lat="14.546489715917366" lon="121.01344059668638"><ele>13.0</ele><time>2026-04-02T04:06:15Z</time></trkpt><trkpt lat="14.54632290874502" lon="121.0135226786541"><ele>12.0</ele><time>2026-04-02T04:06:16Z</time></trkpt><trkpt lat="14.54617122595492" lon="121.01360292722006"><ele>11.0</ele><time>2026-04-02T04:06:17Z</time></trkpt><trkpt lat="14.546027996260003" lon="121.01367466814979"><ele>10.0</ele><time>2026-04-02T04:06:18Z</time></trkpt><trkpt lat="14.545873236316291" lon="121.0137505972057"><ele>10.0</ele><time>2026-04-02T04:06:18.999Z</time></trkpt><trkpt lat="14.545718583288227" lon="121.0138301967479"><ele>10.0</ele><time>2026-04-02T04:06:19.999Z</time></trkpt><trkpt lat="14.545554365503257" lon="121.01391595192553"><ele>10.0</ele><time>2026-04-02T04:06:20.999Z</time></trkpt><trkpt lat="14.545385749733388" lon="121.01400001529717"><ele>10.666666666666668</ele><time>2026-04-02T04:06:21.999Z</time></trkpt><trkpt lat="14.545216617965089" lon="121.01407897500812"><ele>11.333333333333334</ele><time>2026-04-02T04:06:22.999Z</time></trkpt><trkpt lat="14.545048036761116" lon="121.01416546296244"><ele>12.0</ele><time>2026-04-02T04:06:23.999Z</time></trkpt><trkpt lat="14.54488084503188" lon="121.01426184094029"><ele>12.0</ele><time>2026-04-02T04:06:25Z</time></trkpt><trkpt lat="14.544710964309864" lon="121.01436192065898"><ele>12.0</ele><time>2026-04-02T04:06:26Z</time></trkpt><trkpt lat="14.544540998131039" lon="121.0144583951615"><ele>12.0</ele><time>2026-04-02T04:06:27Z</time></trkpt><trkpt lat="14.544375124238279" lon="121.01456059628023"><ele>12.0</ele><time>2026-04-02T04:06:28Z</time></trkpt><trkpt lat="14.544193677304724" lon="121.01465578407331"><ele>12.0</ele><time>2026-04-02T04:06:29Z</time></trkpt><trkpt lat="14.544009334690996" lon="121.01474824426006"><ele>12.0</ele><time>2026-04-02T04:06:30Z</time></trkpt><trkpt lat="14.543834656996854" lon="121.01484824001197"><ele>12.0</ele><time>2026-04-02T04:06:31Z</time></trkpt><trkpt lat="14.543658743383439" lon="121.01494551277938"><ele>12.0</ele><time>2026-04-02T04:06:32Z</time></trkpt><trkpt lat="14.543488641810391" lon="121.01503642318552"><ele>12.0</ele><time>2026-04-02T04:06:33Z</time></trkpt><trkpt lat="14.543319051213397" lon="121.01512015414758"><ele>12.0</ele><time>2026-04-02T04:06:34Z</time></trkpt><trkpt lat="14.543161265381146" lon="121.01520431486982"><ele>12.0</ele><time>2026-04-02T04:06:35Z</time></trkpt><trkpt lat="14.54301474121862" lon="121.01528315919333"><ele>12.0</ele><time>2026-04-02T04:06:36Z</time></trkpt><trkpt lat="14.542868220092235" lon="121.01535285585577"><ele>13.666666666666668</ele><time>2026-04-02T04:06:37Z</time></trkpt><trkpt lat="14.54273685991879" lon="121.01543344992697"><ele>15.333333333333334</ele><time>2026-04-02T04:06:38Z</time></trkpt><trkpt lat="14.542599623193087" lon="121.01551024387746"><ele>17.0</ele><time>2026-04-02T04:06:39Z</time></trkpt><trkpt lat="14.542463998035466" lon="121.01558811981509"><ele>17.0</ele><time>2026-04-02T04:06:40Z</time></trkpt><trkpt lat="14.542322846022197" lon="121.01566400252032"><ele>17.0</ele><time>2026-04-02T04:06:41Z</time></trkpt><trkpt lat="14.542187952182493" lon="121.01573688499388"><ele>17.0</ele><time>2026-04-02T04:06:42Z</time></trkpt><trkpt lat="14.542056677754768" lon="121.01581043560398"><ele>15.5</ele><time>2026-04-02T04:06:43Z</time></trkpt><trkpt lat="14.541922383519509" lon="121.0158781078855"><ele>14.0</ele><time>2026-04-02T04:06:44Z</time></trkpt><trkpt lat="14.541788499127266" lon="121.01593903959096"><ele>12.5</ele><time>2026-04-02T04:06:45Z</time></trkpt><trkpt lat="14.541652340704342" lon="121.0159895794207"><ele>11.0</ele><time>2026-04-02T04:06:46Z</time></trkpt><trkpt lat="14.541528252763003" lon="121.01603393271027"><ele>11.0</ele><time>2026-04-02T04:06:47Z</time></trkpt><trkpt lat="14.541408072948938" lon="121.01607725503277"><ele>11.0</ele><time>2026-04-02T04:06:48Z</time></trkpt><trkpt lat="14.541286321366787" lon="121.01612033936145"><ele>11.0</ele><time>2026-04-02T04:06:49Z</time></trkpt><trkpt lat="14.541181576364528" lon="121.01614941894128"><ele>11.0</ele><time>2026-04-02T04:06:50Z</time></trkpt><trkpt lat="14.541069043064484" lon="121.01618162411695"><ele>11.200000000000001</ele><time>2026-04-02T04:06:51Z</time></trkpt><trkpt lat="14.54097248904637" lon="121.0162144138663"><ele>11.4</ele><time>2026-04-02T04:06:52Z</time></trkpt><trkpt lat="14.540888307356377" lon="121.0162436999397"><ele>11.6</ele><time>2026-04-02T04:06:53Z</time></trkpt><trkpt lat="14.54079624716601" lon="121.01627888999052"><ele>11.8</ele><time>2026-04-02T04:06:54Z</time></trkpt><trkpt lat="14.540698701934543" lon="121.01631681764883"><ele>12.0</ele><time>2026-04-02T04:06:55Z</time></trkpt><trkpt lat="14.54062681890608" lon="121.01635319340691"><ele>12.0</ele><time>2026-04-02T04:06:56Z</time></trkpt><trkpt lat="14.540541263774797" lon="121.0163848657888"><ele>12.0</ele><time>2026-04-02T04:06:57Z</time></trkpt><trkpt lat="14.540465376935352" lon="121.01641872100767"><ele>12.0</ele><time>2026-04-02T04:06:58Z</time></trkpt><trkpt lat="14.540384769670055" lon="121.01646155664929"><ele>12.0</ele><time>2026-04-02T04:06:59Z</time></trkpt><trkpt lat="14.540303923322925" lon="121.01650777320988"><ele>12.0</ele><time>2026-04-02T04:07:00Z</time></trkpt><trkpt lat="14.540223399110259" lon="121.01656544098158"><ele>12.0</ele><time>2026-04-02T04:07:01Z</time></trkpt><trkpt lat="14.540137594657272" lon="121.01662981989128"><ele>12.0</ele><time>2026-04-02T04:07:02Z</time></trkpt><trkpt lat="14.540043660617483" lon="121.01666172419851"><ele>12.0</ele><time>2026-04-02T04:07:03Z</time></trkpt><trkpt lat="14.539952108467354" lon="121.0167184631882"><ele>12.0</ele><time>2026-04-02T04:07:04Z</time></trkpt><trkpt lat="14.539849096543271" lon="121.01678992867691"><ele>12.0</ele><time>2026-04-02T04:07:05Z</time></trkpt><trkpt lat="14.539744516534101" lon="121.0168602802801"><ele>11.75</ele><time>2026-04-02T04:07:06Z</time></trkpt><trkpt lat="14.539645922424132" lon="121.01693675550025"><ele>11.5</ele><time>2026-04-02T04:07:07Z</time></trkpt><trkpt lat="14.539547951813924" lon="121.01701522097383"><ele>11.25</ele><time>2026-04-02T04:07:08Z</time></trkpt><trkpt lat="14.539458951780292" lon="121.01709884920022"><ele>11.0</ele><time>2026-04-02T04:07:09Z</time></trkpt><trkpt lat="14.539362130991945" lon="121.01717023222396"><ele>11.4</ele><time>2026-04-02T04:07:10Z</time></trkpt><trkpt lat="14.539287440408236" lon="121.01723746330025"><ele>11.8</ele><time>2026-04-02T04:07:11Z</time></trkpt><trkpt lat="14.539207247199226" lon="121.01730376432243"><ele>12.200000000000001</ele><time>2026-04-02T04:07:12Z</time></trkpt><trkpt lat="14.539133676470355" lon="121.01736599695506"><ele>12.600000000000001</ele><time>2026-04-02T04:07:13Z</time></trkpt><trkpt lat="14.539061368838963" lon="121.01741915539925"><ele>13.0</ele><time>2026-04-02T04:07:14Z</time></trkpt><trkpt lat="14.539001376446816" lon="121.01746178273282"><ele>12.600000000000001</ele><time>2026-04-02T04:07:15Z</time></trkpt><trkpt lat="14.538926930643962" lon="121.0175038799847"><ele>12.200000000000001</ele><time>2026-04-02T04:07:16Z</time></trkpt><trkpt lat="14.538855736678633" lon="121.01753165164293"><ele>11.8</ele><time>2026-04-02T04:07:17Z</time></trkpt><trkpt lat="14.538787807454382" lon="121.01756657334393"><ele>11.4</ele><time>2026-04-02T04:07:18Z</time></trkpt><trkpt lat="14.538697656748027" lon="121.01764454526132"><ele>11.0</ele><time>2026-04-02T04:07:19Z</time></trkpt><trkpt lat="14.538623407865519" lon="121.0177287178344"><ele>11.0</ele><time>2026-04-02T04:07:20Z</time></trkpt><trkpt lat="14.538536965971831" lon="121.01778166548159"><ele>11.0</ele><time>2026-04-02T04:07:21Z</time></trkpt><trkpt lat="14.538442719449305" lon="121.01779763830424"><ele>11.0</ele><time>2026-04-02T04:07:22Z</time></trkpt><trkpt lat="14.538355742118151" lon="121.01784154866901"><ele>11.0</ele><time>2026-04-02T04:07:23Z</time></trkpt><trkpt lat="14.538267601497708" lon="121.01789045272565"><ele>11.0</ele><time>2026-04-02T04:07:24Z</time></trkpt><trkpt lat="14.538173631080687" lon="121.01794032374409"><ele>11.0</ele><time>2026-04-02T04:07:25Z</time></trkpt><trkpt lat="14.538089871464505" lon="121.01799043770211"><ele>11.0</ele><time>2026-04-02T04:07:26Z</time></trkpt><trkpt lat="14.538003933808886" lon="121.01803545777489"><ele>11.0</ele><time>2026-04-02T04:07:27Z</time></trkpt><trkpt lat="14.537911094218487" lon="121.01807788832565"><ele>11.0</ele><time>2026-04-02T04:07:28Z</time></trkpt><trkpt lat="14.53781965781406" lon="121.01812718093268"><ele>11.0</ele><time>2026-04-02T04:07:29Z</time></trkpt><trkpt lat="14.537723336738683" lon="121.01818213182055"><ele>11.0</ele><time>2026-04-02T04:07:30Z</time></trkpt><trkpt lat="14.537620749035051" lon="121.0182358994059"><ele>11.0</ele><time>2026-04-02T04:07:31Z</time></trkpt><trkpt lat="14.537517475954541" lon="121.01829506445377"><ele>11.0</ele><time>2026-04-02T04:07:32Z</time></trkpt><trkpt lat="14.537407435995293" lon="121.01835517286787"><ele>11.0</ele><time>2026-04-02T04:07:33Z</time></trkpt><trkpt lat="14.537294728522495" lon="121.01842000744834"><ele>11.0</ele><time>2026-04-02T04:07:34Z</time></trkpt><trkpt lat="14.537173338840223" lon="121.01847760949157"><ele>11.0</ele><time>2026-04-02T04:07:35Z</time></trkpt><trkpt lat="14.537057899371996" lon="121.01854207446257"><ele>11.0</ele><time>2026-04-02T04:07:36Z</time></trkpt><trkpt lat="14.536931737499584" lon="121.0185997282154"><ele>11.0</ele><time>2026-04-02T04:07:37Z</time></trkpt><trkpt lat="14.536806078392747" lon="121.01866409973361"><ele>11.0</ele><time>2026-04-02T04:07:38Z</time></trkpt><trkpt lat="14.536678956220982" lon="121.0187352732666"><ele>11.0</ele><time>2026-04-02T04:07:39Z</time></trkpt><trkpt lat="14.536541355528907" lon="121.01880362596589"><ele>11.0</ele><time>2026-04-02T04:07:40Z</time></trkpt><trkpt lat="14.536405738251434" lon="121.01888144917692"><ele>11.0</ele><time>2026-04-02T04:07:41Z</time></trkpt><trkpt lat="14.536263053970863" lon="121.01896037585978"><ele>11.0</ele><time>2026-04-02T04:07:42Z</time></trkpt><trkpt lat="14.536120230655193" lon="121.0190398425416"><ele>11.0</ele><time>2026-04-02T04:07:43Z</time></trkpt><trkpt lat="14.53597272316918" lon="121.01912050684544"><ele>12.333333333333332</ele><time>2026-04-02T04:07:44Z</time></trkpt><trkpt lat="14.535824424155923" lon="121.01920805535516"><ele>13.666666666666666</ele><time>2026-04-02T04:07:45Z</time></trkpt><trkpt lat="14.535678189811982" lon="121.01929125905421"><ele>15.0</ele><time>2026-04-02T04:07:46Z</time></trkpt><trkpt lat="14.53553354129907" lon="121.01938069388237"><ele>14.333333333333332</ele><time>2026-04-02T04:07:47Z</time></trkpt><trkpt lat="14.535380343320611" lon="121.01947098578755"><ele>13.666666666666666</ele><time>2026-04-02T04:07:48Z</time></trkpt><trkpt lat="14.535225324929296" lon="121.01956320495434"><ele>13.0</ele><time>2026-04-02T04:07:49Z</time></trkpt><trkpt lat="14.535072963993706" lon="121.01966264211863"><ele>13.0</ele><time>2026-04-02T04:07:50Z</time></trkpt><trkpt lat="14.534904848144638" lon="121.01975307725056"><ele>13.0</ele><time>2026-04-02T04:07:51Z</time></trkpt><trkpt lat="14.534733645432171" lon="121.01984464922036"><ele>13.0</ele><time>2026-04-02T04:07:52Z</time></trkpt><trkpt lat="14.534566289436563" lon="121.01993498335094"><ele>14.0</ele><time>2026-04-02T04:07:53Z</time></trkpt><trkpt lat="14.534386795052797" lon="121.02002350635145"><ele>15.0</ele><time>2026-04-02T04:07:54Z</time></trkpt><trkpt lat="14.534206874209898" lon="121.02011510688882"><ele>16.0</ele><time>2026-04-02T04:07:55Z</time></trkpt><trkpt lat="14.534026595693575" lon="121.02021477860333"><ele>16.0</ele><time>2026-04-02T04:07:56Z</time></trkpt><trkpt lat="14.53384023417223" lon="121.02031236191175"><ele>16.0</ele><time>2026-04-02T04:07:57Z</time></trkpt><trkpt lat="14.533651883507153" lon="121.02041639898191"><ele>16.0</ele><time>2026-04-02T04:07:58Z</time></trkpt><trkpt lat="14.533457931632716" lon="121.02051755123182"><ele>16.333333333333332</ele><time>2026-04-02T04:07:59Z</time></trkpt><trkpt lat="14.53326077067961" lon="121.02062283305506"><ele>16.666666666666668</ele><time>2026-04-02T04:08:00Z</time></trkpt><trkpt lat="14.533061902858122" lon="121.02073271159007"><ele>17.0</ele><time>2026-04-02T04:08:01Z</time></trkpt><trkpt lat="14.532867159136213" lon="121.02084432701504"><ele>15.333333333333334</ele><time>2026-04-02T04:08:02Z</time></trkpt><trkpt lat="14.532676551187173" lon="121.02095314046312"><ele>13.666666666666668</ele><time>2026-04-02T04:08:03Z</time></trkpt><trkpt lat="14.53249170257805" lon="121.02104836115656"><ele>12.0</ele><time>2026-04-02T04:08:04Z</time></trkpt><trkpt lat="14.53231750944093" lon="121.02113690511436"><ele>12.0</ele><time>2026-04-02T04:08:05Z</time></trkpt><trkpt lat="14.532151886854786" lon="121.02122595931836"><ele>12.0</ele><time>2026-04-02T04:08:06Z</time></trkpt><trkpt lat="14.531976822164118" lon="121.02132384480076"><ele>12.0</ele><time>2026-04-02T04:08:07Z</time></trkpt><trkpt lat="14.531814261736022" lon="121.02141545349826"><ele>10.666666666666666</ele><time>2026-04-02T04:08:08Z</time></trkpt><trkpt lat="14.531667510116074" lon="121.02149631312362"><ele>9.333333333333332</ele><time>2026-04-02T04:08:09Z</time></trkpt><trkpt lat="14.531525885300336" lon="121.02157051093721"><ele>8.0</ele><time>2026-04-02T04:08:10Z</time></trkpt><trkpt lat="14.531392865401939" lon="121.02163551640533"><ele>8.25</ele><time>2026-04-02T04:08:11Z</time></trkpt><trkpt lat="14.531265926097143" lon="121.02170308526611"><ele>8.5</ele><time>2026-04-02T04:08:12Z</time></trkpt><trkpt lat="14.53114046206921" lon="121.02176575931327"><ele>8.75</ele><time>2026-04-02T04:08:13Z</time></trkpt><trkpt lat="14.531006685567917" lon="121.02182991732882"><ele>9.0</ele><time>2026-04-02T04:08:14.001Z</time></trkpt><trkpt lat="14.530873668606944" lon="121.02189922220542"><ele>9.0</ele><time>2026-04-02T04:08:15.001Z</time></trkpt><trkpt lat="14.530735139532867" lon="121.02195970948999"><ele>9.0</ele><time>2026-04-02T04:08:16Z</time></trkpt><trkpt lat="14.530598701151918" lon="121.0220338907836"><ele>9.0</ele><time>2026-04-02T04:08:17Z</time></trkpt><trkpt lat="14.530473498548094" lon="121.02208799322368"><ele>9.0</ele><time>2026-04-02T04:08:18Z</time></trkpt><trkpt lat="14.530350069844017" lon="121.02215695242947"><ele>8.666666666666666</ele><time>2026-04-02T04:08:19Z</time></trkpt><trkpt lat="14.530219733149822" lon="121.02222150254943"><ele>8.333333333333332</ele><time>2026-04-02T04:08:20Z</time></trkpt><trkpt lat="14.530084692839289" lon="121.0222914302198"><ele>8.0</ele><time>2026-04-02T04:08:21Z</time></trkpt><trkpt lat="14.52994580766946" lon="121.02236512026613"><ele>8.0</ele><time>2026-04-02T04:08:22Z</time></trkpt><trkpt lat="14.529811130988588" lon="121.02242943577993"><ele>8.0</ele><time>2026-04-02T04:08:23Z</time></trkpt><trkpt lat="14.52967946679642" lon="121.02249775470733"><ele>8.0</ele><time>2026-04-02T04:08:24Z</time></trkpt><trkpt lat="14.529547257693988" lon="121.02256894877624"><ele>8.0</ele><time>2026-04-02T04:08:25Z</time></trkpt><trkpt lat="14.529425124041124" lon="121.02262816913847"><ele>8.5</ele><time>2026-04-02T04:08:26Z</time></trkpt><trkpt lat="14.529310887846277" lon="121.02269169811764"><ele>9.0</ele><time>2026-04-02T04:08:27Z</time></trkpt><trkpt lat="14.529201548730557" lon="121.02275434179585"><ele>9.5</ele><time>2026-04-02T04:08:28Z</time></trkpt><trkpt lat="14.529099699650207" lon="121.02280612806862"><ele>10.0</ele><time>2026-04-02T04:08:29Z</time></trkpt><trkpt lat="14.529005585020068" lon="121.02285626115865"><ele>10.0</ele><time>2026-04-02T04:08:30Z</time></trkpt><trkpt lat="14.528907220274448" lon="121.02291114440602"><ele>10.0</ele><time>2026-04-02T04:08:31Z</time></trkpt><trkpt lat="14.52881020344698" lon="121.0229651835563"><ele>10.0</ele><time>2026-04-02T04:08:32Z</time></trkpt><trkpt lat="14.52870830743992" lon="121.02302509814184"><ele>10.0</ele><time>2026-04-02T04:08:33Z</time></trkpt><trkpt lat="14.52859254159144" lon="121.02308899377279"><ele>10.0</ele><time>2026-04-02T04:08:34Z</time></trkpt><trkpt lat="14.528467604588485" lon="121.02315380843304"><ele>10.0</ele><time>2026-04-02T04:08:35Z</time></trkpt><trkpt lat="14.528338359315557" lon="121.02322480054748"><ele>10.0</ele><time>2026-04-02T04:08:36Z</time></trkpt><trkpt lat="14.528198539045984" lon="121.02329383050282"><ele>10.0</ele><time>2026-04-02T04:08:37Z</time></trkpt><trkpt lat="14.528072075386522" lon="121.02336144955669"><ele>10.0</ele><time>2026-04-02T04:08:38Z</time></trkpt><trkpt lat="14.527960051839282" lon="121.0234234056343"><ele>10.0</ele><time>2026-04-02T04:08:39Z</time></trkpt><trkpt lat="14.527852051462343" lon="121.02348690007517"><ele>10.0</ele><time>2026-04-02T04:08:40Z</time></trkpt><trkpt lat="14.527745717742434" lon="121.0235486150226"><ele>10.0</ele><time>2026-04-02T04:08:41Z</time></trkpt><trkpt lat="14.527634763301506" lon="121.02360741979462"><ele>10.25</ele><time>2026-04-02T04:08:42Z</time></trkpt><trkpt lat="14.527527024921854" lon="121.02366055341435"><ele>10.5</ele><time>2026-04-02T04:08:43Z</time></trkpt><trkpt lat="14.527419156091296" lon="121.02372900192296"><ele>10.75</ele><time>2026-04-02T04:08:44Z</time></trkpt><trkpt lat="14.527297954221297" lon="121.02377118998977"><ele>11.0</ele><time>2026-04-02T04:08:45Z</time></trkpt><trkpt lat="14.527191798408904" lon="121.02383050796514"><ele>11.0</ele><time>2026-04-02T04:08:46Z</time></trkpt><trkpt lat="14.527094961424195" lon="121.02387738543986"><ele>11.0</ele><time>2026-04-02T04:08:47Z</time></trkpt><trkpt lat="14.526992451678083" lon="121.02392690961422"><ele>11.0</ele><time>2026-04-02T04:08:48Z</time></trkpt><trkpt lat="14.526899690849051" lon="121.02399696825512"><ele>11.0</ele><time>2026-04-02T04:08:49Z</time></trkpt><trkpt lat="14.526797342303517" lon="121.02405636706806"><ele>11.25</ele><time>2026-04-02T04:08:50Z</time></trkpt><trkpt lat="14.52668144432225" lon="121.02412099322156"><ele>11.5</ele><time>2026-04-02T04:08:51Z</time></trkpt><trkpt lat="14.526563627167347" lon="121.02419140011091"><ele>11.75</ele><time>2026-04-02T04:08:52Z</time></trkpt><trkpt lat="14.526445376108894" lon="121.02425425172135"><ele>12.0</ele><time>2026-04-02T04:08:53Z</time></trkpt><trkpt lat="14.526328008279085" lon="121.02431142706274"><ele>10.75</ele><time>2026-04-02T04:08:54Z</time></trkpt><trkpt lat="14.526223566141585" lon="121.02436343553462"><ele>9.5</ele><time>2026-04-02T04:08:55Z</time></trkpt><trkpt lat="14.52611908948701" lon="121.02442406731431"><ele>8.25</ele><time>2026-04-02T04:08:56Z</time></trkpt><trkpt lat="14.526016128556803" lon="121.02449072026643"><ele>7.0</ele><time>2026-04-02T04:08:57Z</time></trkpt><trkpt lat="14.525909316511154" lon="121.02455550036761"><ele>7.0</ele><time>2026-04-02T04:08:58Z</time></trkpt><trkpt lat="14.525801637584998" lon="121.02461689561233"><ele>7.0</ele><time>2026-04-02T04:08:59Z</time></trkpt><trkpt lat="14.525695652265034" lon="121.02467515238881"><ele>7.0</ele><time>2026-04-02T04:09:00Z</time></trkpt><trkpt lat="14.525590266023586" lon="121.02473650589442"><ele>7.0</ele><time>2026-04-02T04:09:01Z</time></trkpt><trkpt lat="14.52548979677499" lon="121.0247947268654"><ele>7.8</ele><time>2026-04-02T04:09:02Z</time></trkpt><trkpt lat="14.5253915824624" lon="121.0248494361798"><ele>8.6</ele><time>2026-04-02T04:09:03Z</time></trkpt><trkpt lat="14.525296991417601" lon="121.02489300836001"><ele>9.4</ele><time>2026-04-02T04:09:04Z</time></trkpt><trkpt lat="14.52520606348639" lon="121.02493702735919"><ele>10.200000000000001</ele><time>2026-04-02T04:09:05Z</time></trkpt><trkpt lat="14.525124905877405" lon="121.02497292368257"><ele>11.0</ele><time>2026-04-02T04:09:06Z</time></trkpt><trkpt lat="14.525045853955646" lon="121.02499411284639"><ele>11.0</ele><time>2026-04-02T04:09:07Z</time></trkpt><trkpt lat="14.524971866529684" lon="121.02498717110443"><ele>11.0</ele><time>2026-04-02T04:09:08Z</time></trkpt><trkpt lat="14.524894053569014" lon="121.02496446824534"><ele>11.0</ele><time>2026-04-02T04:09:09Z</time></trkpt><trkpt lat="14.524817591386515" lon="121.02492756493608"><ele>11.0</ele><time>2026-04-02T04:09:10Z</time></trkpt><trkpt lat="14.524748329931368" lon="121.024876854843"><ele>11.0</ele><time>2026-04-02T04:09:11Z</time></trkpt><trkpt lat="14.52467887854982" lon="121.02481297413576"><ele>11.0</ele><time>2026-04-02T04:09:12Z</time></trkpt><trkpt lat="14.524626992413376" lon="121.02473590377792"><ele>11.166666666666666</ele><time>2026-04-02T04:09:13Z</time></trkpt><trkpt lat="14.524588518648999" lon="121.02465378726957"><ele>11.333333333333332</ele><time>2026-04-02T04:09:14Z</time></trkpt><trkpt lat="14.524538001206539" lon="121.02456921718411"><ele>11.5</ele><time>2026-04-02T04:09:15Z</time></trkpt><trkpt lat="14.524478717836587" lon="121.02451672129415"><ele>11.666666666666666</ele><time>2026-04-02T04:09:16Z</time></trkpt><trkpt lat="14.524402924029951" lon="121.02447261557211"><ele>11.833333333333334</ele><time>2026-04-02T04:09:17Z</time></trkpt><trkpt lat="14.52432413742622" lon="121.02444619219926"><ele>12.0</ele><time>2026-04-02T04:09:18Z</time></trkpt><trkpt lat="14.524248895126993" lon="121.02443113533967"><ele>12.833333333333334</ele><time>2026-04-02T04:09:19Z</time></trkpt><trkpt lat="14.524185018896706" lon="121.02441985236138"><ele>13.666666666666668</ele><time>2026-04-02T04:09:20Z</time></trkpt><trkpt lat="14.524095660462914" lon="121.02442254235056"><ele>14.5</ele><time>2026-04-02T04:09:22Z</time></trkpt><trkpt lat="14.524014892994295" lon="121.02441141570102"><ele>15.333333333333334</ele><time>2026-04-02T04:09:24Z</time></trkpt><trkpt lat="14.523937633177665" lon="121.02441216914097"><ele>16.166666666666668</ele><time>2026-04-02T04:09:26Z</time></trkpt><trkpt lat="14.523861654717553" lon="121.02444091774298"><ele>17.0</ele><time>2026-04-02T04:09:27Z</time></trkpt><trkpt lat="14.523783914198225" lon="121.02448808529667"><ele>17.4</ele><time>2026-04-02T04:09:28Z</time></trkpt><trkpt lat="14.523701153718198" lon="121.02454255837172"><ele>17.799999999999997</ele><time>2026-04-02T04:09:29Z</time></trkpt><trkpt lat="14.523618343232181" lon="121.02459913271078"><ele>18.2</ele><time>2026-04-02T04:09:30Z</time></trkpt><trkpt lat="14.523543677199838" lon="121.02465171256307"><ele>18.599999999999998</ele><time>2026-04-02T04:09:31Z</time></trkpt><trkpt lat="14.523459100495401" lon="121.02468826729735"><ele>19.0</ele><time>2026-04-02T04:09:32Z</time></trkpt><trkpt lat="14.52337865936112" lon="121.02469948317858"><ele>19.0</ele><time>2026-04-02T04:09:33Z</time></trkpt><trkpt lat="14.5232843560666" lon="121.02470302280219"><ele>19.0</ele><time>2026-04-02T04:09:34Z</time></trkpt><trkpt lat="14.523209160158633" lon="121.02469613589459"><ele>19.0</ele><time>2026-04-02T04:09:35Z</time></trkpt><trkpt lat="14.52311985128763" lon="121.02468151303013"><ele>19.0</ele><time>2026-04-02T04:09:36Z</time></trkpt><trkpt lat="14.523033348219839" lon="121.02464502523249"><ele>19.0</ele><time>2026-04-02T04:09:37Z</time></trkpt><trkpt lat="14.52295150610479" lon="121.0245911431704"><ele>19.2</ele><time>2026-04-02T04:09:38Z</time></trkpt><trkpt lat="14.522863775812851" lon="121.02453251786591"><ele>19.4</ele><time>2026-04-02T04:09:39Z</time></trkpt><trkpt lat="14.522763260048798" lon="121.02449413881705"><ele>19.6</ele><time>2026-04-02T04:09:40Z</time></trkpt><trkpt lat="14.522675340095862" lon="121.02444371848458"><ele>19.8</ele><time>2026-04-02T04:09:41Z</time></trkpt><trkpt lat="14.522578032373652" lon="121.02438623362922"><ele>20.0</ele><time>2026-04-02T04:09:42Z</time></trkpt><trkpt lat="14.522482458618741" lon="121.02433779156287"><ele>20.0</ele><time>2026-04-02T04:09:43Z</time></trkpt><trkpt lat="14.522382239537205" lon="121.0242648215881"><ele>20.0</ele><time>2026-04-02T04:09:44Z</time></trkpt><trkpt lat="14.522274564354372" lon="121.02418597751317"><ele>20.0</ele><time>2026-04-02T04:09:45Z</time></trkpt><trkpt lat="14.52216950665445" lon="121.02411160139333"><ele>20.0</ele><time>2026-04-02T04:09:46Z</time></trkpt><trkpt lat="14.522052114278475" lon="121.02403296537538"><ele>19.333333333333336</ele><time>2026-04-02T04:09:47Z</time></trkpt><trkpt lat="14.521931666491467" lon="121.02395284010048"><ele>18.666666666666668</ele><time>2026-04-02T04:09:48Z</time></trkpt><trkpt lat="14.521807023491696" lon="121.02386489595463"><ele>18.0</ele><time>2026-04-02T04:09:49Z</time></trkpt><trkpt lat="14.521672227718952" lon="121.02377175479715"><ele>18.0</ele><time>2026-04-02T04:09:50Z</time></trkpt><trkpt lat="14.521545338873493" lon="121.02368304377534"><ele>18.0</ele><time>2026-04-02T04:09:51Z</time></trkpt><trkpt lat="14.521404032686544" lon="121.02357807249149"><ele>18.0</ele><time>2026-04-02T04:09:52Z</time></trkpt><trkpt lat="14.521274685152335" lon="121.02346781532631"><ele>19.333333333333332</ele><time>2026-04-02T04:09:53Z</time></trkpt><trkpt lat="14.52115389344247" lon="121.02336109403262"><ele>20.666666666666664</ele><time>2026-04-02T04:09:54Z</time></trkpt><trkpt lat="14.521038496337518" lon="121.02325300452478"><ele>22.0</ele><time>2026-04-02T04:09:55Z</time></trkpt><trkpt lat="14.520924039489769" lon="121.02314820570129"><ele>22.0</ele><time>2026-04-02T04:09:56Z</time></trkpt><trkpt lat="14.520819099824072" lon="121.02301442686107"><ele>22.0</ele><time>2026-04-02T04:09:57Z</time></trkpt><trkpt lat="14.520726897572427" lon="121.02290162708368"><ele>22.0</ele><time>2026-04-02T04:09:58Z</time></trkpt><trkpt lat="14.520634202893445" lon="121.0228066326319"><ele>22.0</ele><time>2026-04-02T04:09:59Z</time></trkpt><trkpt lat="14.520554926020631" lon="121.0227278737698"><ele>22.0</ele><time>2026-04-02T04:10:00Z</time></trkpt><trkpt lat="14.52045978409548" lon="121.02263507031292"><ele>22.0</ele><time>2026-04-02T04:10:01Z</time></trkpt><trkpt lat="14.520361381021797" lon="121.02254101781236"><ele>22.0</ele><time>2026-04-02T04:10:02Z</time></trkpt><trkpt lat="14.52025866838309" lon="121.02244890899927"><ele>22.0</ele><time>2026-04-02T04:10:03Z</time></trkpt><trkpt lat="14.520163202506348" lon="121.02234602406277"><ele>22.0</ele><time>2026-04-02T04:10:04Z</time></trkpt><trkpt lat="14.520066245218903" lon="121.02223854293486"><ele>22.0</ele><time>2026-04-02T04:10:05Z</time></trkpt><trkpt lat="14.51996909779642" lon="121.02214155678426"><ele>22.0</ele><time>2026-04-02T04:10:06Z</time></trkpt><trkpt lat="14.519875415383417" lon="121.02204360189302"><ele>22.0</ele><time>2026-04-02T04:10:07Z</time></trkpt><trkpt lat="14.519779760128426" lon="121.02194630668232"><ele>22.0</ele><time>2026-04-02T04:10:08Z</time></trkpt><trkpt lat="14.519695618454582" lon="121.02185396839351"><ele>22.0</ele><time>2026-04-02T04:10:09Z</time></trkpt><trkpt lat="14.519595002753723" lon="121.02175940685018"><ele>22.0</ele><time>2026-04-02T04:10:10.001Z</time></trkpt><trkpt lat="14.519507775915958" lon="121.02167273947046"><ele>22.0</ele><time>2026-04-02T04:10:11.001Z</time></trkpt><trkpt lat="14.519410117873727" lon="121.02158231830295"><ele>22.0</ele><time>2026-04-02T04:10:12.001Z</time></trkpt><trkpt lat="14.519316116583543" lon="121.02149283204398"><ele>22.0</ele><time>2026-04-02T04:10:13.001Z</time></trkpt><trkpt lat="14.51924428404675" lon="121.02140878284808"><ele>22.0</ele><time>2026-04-02T04:10:14.001Z</time></trkpt><trkpt lat="14.51916886908726" lon="121.0213225069085"><ele>22.0</ele><time>2026-04-02T04:10:15.001Z</time></trkpt><trkpt lat="14.519087658608257" lon="121.02125338743886"><ele>22.0</ele><time>2026-04-02T04:10:16.001Z</time></trkpt><trkpt lat="14.518997114637681" lon="121.02118270588345"><ele>22.0</ele><time>2026-04-02T04:10:17.001Z</time></trkpt><trkpt lat="14.518954093442082" lon="121.02113127055024"><ele>22.0</ele><time>2026-04-02T04:10:18.001Z</time></trkpt><trkpt lat="14.51890090046977" lon="121.0210824636132"><ele>22.0</ele><time>2026-04-02T04:10:19.001Z</time></trkpt><trkpt lat="14.518810482492793" lon="121.02101635768506"><ele>22.0</ele><time>2026-04-02T04:10:21.001Z</time></trkpt><trkpt lat="14.518724467204942" lon="121.02091896527709"><ele>22.0</ele><time>2026-04-02T04:10:23Z</time></trkpt><trkpt lat="14.518672962368928" lon="121.02085747351244"><ele>22.0</ele><time>2026-04-02T04:10:24Z</time></trkpt><trkpt lat="14.518632736992553" lon="121.02079288298233"><ele>22.0</ele><time>2026-04-02T04:10:25Z</time></trkpt><trkpt lat="14.51859136005069" lon="121.02072653984553"><ele>22.0</ele><time>2026-04-02T04:10:26Z</time></trkpt><trkpt lat="14.518515693580602" lon="121.02063304207832"><ele>22.0</ele><time>2026-04-02T04:10:28Z</time></trkpt><trkpt lat="14.518447216941466" lon="121.02059770896848"><ele>22.0</ele><time>2026-04-02T04:10:29Z</time></trkpt><trkpt lat="14.518362493426475" lon="121.0205385228624"><ele>21.42857142857143</ele><time>2026-04-02T04:10:31Z</time></trkpt><trkpt lat="14.51832240969425" lon="121.02048381168008"><ele>20.857142857142858</ele><time>2026-04-02T04:10:32Z</time></trkpt><trkpt lat="14.518279670495813" lon="121.02043427068125"><ele>20.285714285714285</ele><time>2026-04-02T04:10:33Z</time></trkpt><trkpt lat="14.518236401627554" lon="121.02038539280815"><ele>19.714285714285715</ele><time>2026-04-02T04:10:34Z</time></trkpt><trkpt lat="14.518190427700244" lon="121.02033548216217"><ele>19.142857142857142</ele><time>2026-04-02T04:10:35Z</time></trkpt><trkpt lat="14.518138956439248" lon="121.02028829941808"><ele>18.571428571428573</ele><time>2026-04-02T04:10:36Z</time></trkpt><trkpt lat="14.518092339515647" lon="121.02023781332488"><ele>18.0</ele><time>2026-04-02T04:10:37Z</time></trkpt><trkpt lat="14.518042445913926" lon="121.02018976992126"><ele>18.0</ele><time>2026-04-02T04:10:38Z</time></trkpt><trkpt lat="14.517962412369421" lon="121.02010767230719"><ele>18.0</ele><time>2026-04-02T04:10:40Z</time></trkpt><trkpt lat="14.517902368108741" lon="121.02003367019489"><ele>18.0</ele><time>2026-04-02T04:10:42Z</time></trkpt><trkpt lat="14.51784109368438" lon="121.01995259083525"><ele>18.0</ele><time>2026-04-02T04:10:44Z</time></trkpt><trkpt lat="14.51780512100094" lon="121.01988888721911"><ele>18.0</ele><time>2026-04-02T04:10:45Z</time></trkpt><trkpt lat="14.517760348308435" lon="121.01983311175249"><ele>18.0</ele><time>2026-04-02T04:10:46Z</time></trkpt><trkpt lat="14.517709044102661" lon="121.01977190718195"><ele>17.8</ele><time>2026-04-02T04:10:47Z</time></trkpt><trkpt lat="14.517653087459161" lon="121.01970580617004"><ele>17.6</ele><time>2026-04-02T04:10:48Z</time></trkpt><trkpt lat="14.517594522057381" lon="121.01963197657102"><ele>17.4</ele><time>2026-04-02T04:10:49Z</time></trkpt><trkpt lat="14.517555447096711" lon="121.01956327366663"><ele>17.2</ele><time>2026-04-02T04:10:50Z</time></trkpt><trkpt lat="14.517514545512686" lon="121.01946137988706"><ele>17.0</ele><time>2026-04-02T04:10:52Z</time></trkpt><trkpt lat="14.517423537158974" lon="121.01937207993633"><ele>17.0</ele><time>2026-04-02T04:10:54Z</time></trkpt><trkpt lat="14.517406964267806" lon="121.0193058174397"><ele>17.0</ele><time>2026-04-02T04:10:55Z</time></trkpt><trkpt lat="14.517431576975234" lon="121.01917242463394"><ele>17.0</ele><time>2026-04-02T04:10:57Z</time></trkpt><trkpt lat="14.517451697325932" lon="121.01910262093017"><ele>17.0</ele><time>2026-04-02T04:10:58Z</time></trkpt><trkpt lat="14.51746879770368" lon="121.01903560836091"><ele>17.0</ele><time>2026-04-02T04:10:59Z</time></trkpt><trkpt lat="14.51748657409603" lon="121.01896490699123"><ele>17.0</ele><time>2026-04-02T04:11:00Z</time></trkpt><trkpt lat="14.5175207397729" lon="121.01889421403182"><ele>16.833333333333336</ele><time>2026-04-02T04:11:01Z</time></trkpt><trkpt lat="14.517558986265424" lon="121.01882604013737"><ele>16.666666666666668</ele><time>2026-04-02T04:11:02Z</time></trkpt><trkpt lat="14.517605011135885" lon="121.01876539629275"><ele>16.5</ele><time>2026-04-02T04:11:03Z</time></trkpt><trkpt lat="14.517652872505131" lon="121.01871308280681"><ele>16.333333333333332</ele><time>2026-04-02T04:11:04Z</time></trkpt><trkpt lat="14.517747542785518" lon="121.01861885173358"><ele>16.166666666666664</ele><time>2026-04-02T04:11:06Z</time></trkpt><trkpt lat="14.517807545733152" lon="121.0185764651765"><ele>16.0</ele><time>2026-04-02T04:11:07Z</time></trkpt><trkpt lat="14.517859702239752" lon="121.01853742312878"><ele>16.285714285714285</ele><time>2026-04-02T04:11:08Z</time></trkpt><trkpt lat="14.51790739314674" lon="121.0184875535176"><ele>16.57142857142857</ele><time>2026-04-02T04:11:09Z</time></trkpt><trkpt lat="14.51795794420521" lon="121.01843865771029"><ele>16.857142857142858</ele><time>2026-04-02T04:11:10Z</time></trkpt><trkpt lat="14.518009659666285" lon="121.0183905028385"><ele>17.142857142857142</ele><time>2026-04-02T04:11:11Z</time></trkpt><trkpt lat="14.518062862350677" lon="121.01833472904589"><ele>17.42857142857143</ele><time>2026-04-02T04:11:12Z</time></trkpt><trkpt lat="14.51811756371551" lon="121.01828268427167"><ele>17.714285714285715</ele><time>2026-04-02T04:11:13Z</time></trkpt><trkpt lat="14.518170290691067" lon="121.01822658687637"><ele>18.0</ele><time>2026-04-02T04:11:14Z</time></trkpt><trkpt lat="14.518220880913034" lon="121.01816893207899"><ele>18.0</ele><time>2026-04-02T04:11:15Z</time></trkpt><trkpt lat="14.518271468249" lon="121.0181148816093"><ele>18.0</ele><time>2026-04-02T04:11:16Z</time></trkpt><trkpt lat="14.518326406917682" lon="121.01806181310826"><ele>18.0</ele><time>2026-04-02T04:11:17Z</time></trkpt><trkpt lat="14.518381494040353" lon="121.01800917676472"><ele>18.0</ele><time>2026-04-02T04:11:18Z</time></trkpt><trkpt lat="14.518457548477908" lon="121.01794149231641"><ele>18.0</ele><time>2026-04-02T04:11:20Z</time></trkpt><trkpt lat="14.518533853127463" lon="121.01787077168048"><ele>18.0</ele><time>2026-04-02T04:11:22Z</time></trkpt><trkpt lat="14.51860653144394" lon="121.01777834224772"><ele>18.0</ele><time>2026-04-02T04:11:24Z</time></trkpt><trkpt lat="14.51864892264264" lon="121.01772334291341"><ele>18.0</ele><time>2026-04-02T04:11:25Z</time></trkpt><trkpt lat="14.518694010438697" lon="121.01766712922306"><ele>18.0</ele><time>2026-04-02T04:11:26Z</time></trkpt><trkpt lat="14.518745465563423" lon="121.01761122523276"><ele>18.0</ele><time>2026-04-02T04:11:27Z</time></trkpt><trkpt lat="14.518794401903563" lon="121.01756041750086"><ele>18.0</ele><time>2026-04-02T04:11:28Z</time></trkpt><trkpt lat="14.518871933513875" lon="121.01747702118496"><ele>18.0</ele><time>2026-04-02T04:11:30Z</time></trkpt><trkpt lat="14.518940666876144" lon="121.01740954593647"><ele>18.0</ele><time>2026-04-02T04:11:32Z</time></trkpt><trkpt lat="14.518999740510663" lon="121.01735340171211"><ele>18.0</ele><time>2026-04-02T04:11:35Z</time></trkpt><trkpt lat="14.519045496642866" lon="121.01730131756771"><ele>18.0</ele><time>2026-04-02T04:11:37Z</time></trkpt><trkpt lat="14.519119147477836" lon="121.01720329582562"><ele>18.0</ele><time>2026-04-02T04:11:39Z</time></trkpt><trkpt lat="14.519162484217151" lon="121.01715237065119"><ele>18.0</ele><time>2026-04-02T04:11:40Z</time></trkpt><trkpt lat="14.519215003360234" lon="121.01709334421412"><ele>18.0</ele><time>2026-04-02T04:11:41Z</time></trkpt><trkpt lat="14.519255223503322" lon="121.01703890371853"><ele>18.0</ele><time>2026-04-02T04:11:42Z</time></trkpt><trkpt lat="14.51929896639741" lon="121.01698511551606"><ele>18.0</ele><time>2026-04-02T04:11:43Z</time></trkpt><trkpt lat="14.519377388194295" lon="121.01689774121506"><ele>18.0</ele><time>2026-04-02T04:11:45Z</time></trkpt><trkpt lat="14.519465358150288" lon="121.0167998001375"><ele>18.0</ele><time>2026-04-02T04:11:47Z</time></trkpt><trkpt lat="14.519518315140445" lon="121.01674720530342"><ele>18.0</ele><time>2026-04-02T04:11:48Z</time></trkpt><trkpt lat="14.519564506389866" lon="121.01670105808076"><ele>17.4</ele><time>2026-04-02T04:11:49Z</time></trkpt><trkpt lat="14.519650121170008" lon="121.01661840838354"><ele>16.8</ele><time>2026-04-02T04:11:51Z</time></trkpt><trkpt lat="14.519739357055066" lon="121.01653610064682"><ele>16.2</ele><time>2026-04-02T04:11:53Z</time></trkpt><trkpt lat="14.519794374480817" lon="121.01649046078049"><ele>15.6</ele><time>2026-04-02T04:11:54Z</time></trkpt><trkpt lat="14.519852594748958" lon="121.0164310153455"><ele>15.0</ele><time>2026-04-02T04:11:55Z</time></trkpt><trkpt lat="14.519909336980442" lon="121.0163653454884"><ele>15.0</ele><time>2026-04-02T04:11:56Z</time></trkpt><trkpt lat="14.519971026498263" lon="121.0162908630815"><ele>15.0</ele><time>2026-04-02T04:11:57Z</time></trkpt><trkpt lat="14.520047921033171" lon="121.0161960417864"><ele>15.0</ele><time>2026-04-02T04:11:59Z</time></trkpt><trkpt lat="14.520087345578837" lon="121.01614253127735"><ele>15.0</ele><time>2026-04-02T04:12:00Z</time></trkpt><trkpt lat="14.520167821255297" lon="121.01603326420214"><ele>15.0</ele><time>2026-04-02T04:12:02Z</time></trkpt><trkpt lat="14.520216472234331" lon="121.01597794813121"><ele>15.0</ele><time>2026-04-02T04:12:03Z</time></trkpt><trkpt lat="14.520265268892427" lon="121.01593054876544"><ele>15.0</ele><time>2026-04-02T04:12:04Z</time></trkpt><trkpt lat="14.52035550257448" lon="121.01586015791504"><ele>15.0</ele><time>2026-04-02T04:12:06Z</time></trkpt><trkpt lat="14.520410361239273" lon="121.01581831455658"><ele>15.0</ele><time>2026-04-02T04:12:07Z</time></trkpt><trkpt lat="14.520474964182258" lon="121.0157709730089"><ele>15.0</ele><time>2026-04-02T04:12:08Z</time></trkpt><trkpt lat="14.520543009888843" lon="121.01570674989993"><ele>15.0</ele><time>2026-04-02T04:12:09Z</time></trkpt><trkpt lat="14.5206138516159" lon="121.01563660779263"><ele>15.0</ele><time>2026-04-02T04:12:10.001Z</time></trkpt><trkpt lat="14.52068023986241" lon="121.01556425493814"><ele>15.0</ele><time>2026-04-02T04:12:11.001Z</time></trkpt><trkpt lat="14.5207415600002" lon="121.0154953124664"><ele>15.0</ele><time>2026-04-02T04:12:12.001Z</time></trkpt><trkpt lat="14.520806220434105" lon="121.0154283315587"><ele>15.0</ele><time>2026-04-02T04:12:13.001Z</time></trkpt><trkpt lat="14.52087522037563" lon="121.01535897990668"><ele>15.0</ele><time>2026-04-02T04:12:14.001Z</time></trkpt><trkpt lat="14.520945862320009" lon="121.01528755863433"><ele>15.0</ele><time>2026-04-02T04:12:15.001Z</time></trkpt><trkpt lat="14.521013839275604" lon="121.0152161104306"><ele>15.0</ele><time>2026-04-02T04:12:16.001Z</time></trkpt><trkpt lat="14.521088462514031" lon="121.01513630594835"><ele>15.0</ele><time>2026-04-02T04:12:17.001Z</time></trkpt><trkpt lat="14.521146705113827" lon="121.01506478056459"><ele>15.0</ele><time>2026-04-02T04:12:18.001Z</time></trkpt><trkpt lat="14.52122353602302" lon="121.01499650178633"><ele>15.0</ele><time>2026-04-02T04:12:19.001Z</time></trkpt><trkpt lat="14.521283538424276" lon="121.01492043347272"><ele>14.4</ele><time>2026-04-02T04:12:20.001Z</time></trkpt><trkpt lat="14.521342814384862" lon="121.01484232438784"><ele>13.8</ele><time>2026-04-02T04:12:21.001Z</time></trkpt><trkpt lat="14.521403441545434" lon="121.0147898402192"><ele>13.2</ele><time>2026-04-02T04:12:22.001Z</time></trkpt><trkpt lat="14.521476087793792" lon="121.01473193196706"><ele>12.6</ele><time>2026-04-02T04:12:23.001Z</time></trkpt><trkpt lat="14.521547563379944" lon="121.01466106639204"><ele>12.0</ele><time>2026-04-02T04:12:24.001Z</time></trkpt><trkpt lat="14.521617628489917" lon="121.01458413250658"><ele>12.0</ele><time>2026-04-02T04:12:25.001Z</time></trkpt><trkpt lat="14.52170013105225" lon="121.01451090140723"><ele>12.0</ele><time>2026-04-02T04:12:26.001Z</time></trkpt><trkpt lat="14.521777825829679" lon="121.01443230974691"><ele>12.0</ele><time>2026-04-02T04:12:27.001Z</time></trkpt><trkpt lat="14.521858068353765" lon="121.01434418155829"><ele>12.0</ele><time>2026-04-02T04:12:28Z</time></trkpt><trkpt lat="14.521949841060291" lon="121.01423848170408"><ele>11.75</ele><time>2026-04-02T04:12:29Z</time></trkpt><trkpt lat="14.522039592211355" lon="121.01413837068432"><ele>11.5</ele><time>2026-04-02T04:12:30Z</time></trkpt><trkpt lat="14.52212155609658" lon="121.01403101928072"><ele>11.25</ele><time>2026-04-02T04:12:31Z</time></trkpt><trkpt lat="14.522200323861114" lon="121.01391582112825"><ele>11.0</ele><time>2026-04-02T04:12:32Z</time></trkpt><trkpt lat="14.522317380942894" lon="121.01382086821806"><ele>11.5</ele><time>2026-04-02T04:12:33Z</time></trkpt><trkpt lat="14.522420604562084" lon="121.01373511277743"><ele>12.0</ele><time>2026-04-02T04:12:34Z</time></trkpt><trkpt lat="14.522507688178232" lon="121.01365328379974"><ele>12.5</ele><time>2026-04-02T04:12:35Z</time></trkpt><trkpt lat="14.522608180386712" lon="121.0135520498435"><ele>13.0</ele><time>2026-04-02T04:12:36Z</time></trkpt><trkpt lat="14.522701809617777" lon="121.01345403462024"><ele>13.0</ele><time>2026-04-02T04:12:37Z</time></trkpt><trkpt lat="14.522793200196322" lon="121.01335864789093"><ele>13.0</ele><time>2026-04-02T04:12:38Z</time></trkpt><trkpt lat="14.522886776475042" lon="121.01326428499802"><ele>13.0</ele><time>2026-04-02T04:12:39Z</time></trkpt><trkpt lat="14.522978233332317" lon="121.01315367612601"><ele>13.0</ele><time>2026-04-02T04:12:40Z</time></trkpt><trkpt lat="14.523062679350058" lon="121.01306134387673"><ele>13.0</ele><time>2026-04-02T04:12:41Z</time></trkpt><trkpt lat="14.523148087444566" lon="121.01297392838946"><ele>13.0</ele><time>2026-04-02T04:12:42Z</time></trkpt><trkpt lat="14.523242420083468" lon="121.01290002293487"><ele>13.0</ele><time>2026-04-02T04:12:43Z</time></trkpt><trkpt lat="14.523329378138676" lon="121.01281939079077"><ele>13.0</ele><time>2026-04-02T04:12:44Z</time></trkpt><trkpt lat="14.523422620003647" lon="121.01273051569062"><ele>13.0</ele><time>2026-04-02T04:12:45Z</time></trkpt><trkpt lat="14.523516123031788" lon="121.01263865700021"><ele>13.0</ele><time>2026-04-02T04:12:46Z</time></trkpt><trkpt lat="14.523601272156599" lon="121.01255070382615"><ele>13.0</ele><time>2026-04-02T04:12:47Z</time></trkpt><trkpt lat="14.523691162646886" lon="121.01246550687834"><ele>13.0</ele><time>2026-04-02T04:12:48Z</time></trkpt><trkpt lat="14.523762344817406" lon="121.01241039877081"><ele>12.4</ele><time>2026-04-02T04:12:49Z</time></trkpt><trkpt lat="14.523810875695103" lon="121.01235756957344"><ele>11.8</ele><time>2026-04-02T04:12:50Z</time></trkpt><trkpt lat="14.523932107372826" lon="121.01233195096691"><ele>11.2</ele><time>2026-04-02T04:12:52Z</time></trkpt><trkpt lat="14.524056954149277" lon="121.01231213489781"><ele>10.6</ele><time>2026-04-02T04:12:54Z</time></trkpt><trkpt lat="14.524135953217481" lon="121.01234988302646"><ele>10.0</ele><time>2026-04-02T04:12:55Z</time></trkpt><trkpt lat="14.524206042768636" lon="121.01241780305712"><ele>10.0</ele><time>2026-04-02T04:12:56Z</time></trkpt><trkpt lat="14.52425518512457" lon="121.01248824503236"><ele>10.0</ele><time>2026-04-02T04:12:57Z</time></trkpt><trkpt lat="14.524293569703929" lon="121.01255387062405"><ele>10.0</ele><time>2026-04-02T04:12:58Z</time></trkpt><trkpt lat="14.524347145560645" lon="121.01259096579749"><ele>10.0</ele><time>2026-04-02T04:12:59Z</time></trkpt><trkpt lat="14.524459626081024" lon="121.01263593035432"><ele>10.0</ele><time>2026-04-02T04:13:01Z</time></trkpt><trkpt lat="14.524521794882984" lon="121.01264820083719"><ele>10.0</ele><time>2026-04-02T04:13:02Z</time></trkpt><trkpt lat="14.52463438203246" lon="121.01263856093499"><ele>10.166666666666668</ele><time>2026-04-02T04:13:04Z</time></trkpt><trkpt lat="14.524737860569385" lon="121.01258610793366"><ele>10.333333333333334</ele><time>2026-04-02T04:13:06Z</time></trkpt><trkpt lat="14.524785040467421" lon="121.01254300810773"><ele>10.5</ele><time>2026-04-02T04:13:07Z</time></trkpt><trkpt lat="14.52484281723606" lon="121.0124984940812"><ele>10.666666666666666</ele><time>2026-04-02T04:13:08Z</time></trkpt><trkpt lat="14.524881603300292" lon="121.0124380790564"><ele>10.833333333333332</ele><time>2026-04-02T04:13:09Z</time></trkpt><trkpt lat="14.5248943205856" lon="121.01235576180774"><ele>11.0</ele><time>2026-04-02T04:13:10Z</time></trkpt><trkpt lat="14.524933716829482" lon="121.01227586680824"><ele>10.666666666666666</ele><time>2026-04-02T04:13:11Z</time></trkpt><trkpt lat="14.524943226979744" lon="121.01220433560096"><ele>10.333333333333332</ele><time>2026-04-02T04:13:12Z</time></trkpt><trkpt lat="14.5249713563768" lon="121.01211538253757"><ele>10.0</ele><time>2026-04-02T04:13:13Z</time></trkpt><trkpt lat="14.52499597921025" lon="121.01204622932764"><ele>9.666666666666666</ele><time>2026-04-02T04:13:14Z</time></trkpt><trkpt lat="14.525051049961643" lon="121.01193588711138"><ele>9.333333333333334</ele><time>2026-04-02T04:13:16Z</time></trkpt><trkpt lat="14.525097303186541" lon="121.01185364487385"><ele>9.0</ele><time>2026-04-02T04:13:18Z</time></trkpt><trkpt lat="14.525149398345356" lon="121.01177480210754"><ele>9.0</ele><time>2026-04-02T04:13:20Z</time></trkpt><trkpt lat="14.525206340079496" lon="121.01169760292213"><ele>9.0</ele><time>2026-04-02T04:13:22Z</time></trkpt><trkpt lat="14.525273838706221" lon="121.01164195842556"><ele>9.0</ele><time>2026-04-02T04:13:25Z</time></trkpt><trkpt lat="14.525329458317112" lon="121.01160263520003"><ele>9.0</ele><time>2026-04-02T04:13:27Z</time></trkpt><trkpt lat="14.525379984785976" lon="121.01155882361238"><ele>9.0</ele><time>2026-04-02T04:13:29Z</time></trkpt><trkpt lat="14.525445427434356" lon="121.01150151713988"><ele>9.0</ele><time>2026-04-02T04:13:32Z</time></trkpt><trkpt lat="14.525510948280234" lon="121.01147613250663"><ele>9.5</ele><time>2026-04-02T04:13:34Z</time></trkpt><trkpt lat="14.52558813280167" lon="121.01143569667468"><ele>10.0</ele><time>2026-04-02T04:13:36Z</time></trkpt><trkpt lat="14.525671725259459" lon="121.01139769914093"><ele>10.5</ele><time>2026-04-02T04:13:38Z</time></trkpt><trkpt lat="14.525746728180398" lon="121.01134773138214"><ele>11.0</ele><time>2026-04-02T04:13:40Z</time></trkpt><trkpt lat="14.525812301787635" lon="121.01130404551358"><ele>11.5</ele><time>2026-04-02T04:13:42Z</time></trkpt><trkpt lat="14.525866161745876" lon="121.01126816340286"><ele>12.0</ele><time>2026-04-02T04:13:44Z</time></trkpt><trkpt lat="14.525935279059937" lon="121.01122211669006"><ele>12.0</ele><time>2026-04-02T04:13:46Z</time></trkpt><trkpt lat="14.526001168659693" lon="121.01117822031017"><ele>12.0</ele><time>2026-04-02T04:13:48Z</time></trkpt><trkpt lat="14.526060672001476" lon="121.01113857855411"><ele>12.0</ele><time>2026-04-02T04:13:49Z</time></trkpt><trkpt lat="14.526115066516438" lon="121.0111017697958"><ele>12.0</ele><time>2026-04-02T04:13:50Z</time></trkpt><trkpt lat="14.52618569916339" lon="121.01105377056437"><ele>12.0</ele><time>2026-04-02T04:13:51Z</time></trkpt><trkpt lat="14.526286177045474" lon="121.01098548959132"><ele>12.0</ele><time>2026-04-02T04:13:52Z</time></trkpt><trkpt lat="14.526380506840994" lon="121.01092138677068"><ele>12.0</ele><time>2026-04-02T04:13:53Z</time></trkpt><trkpt lat="14.526436109536677" lon="121.01086881558754"><ele>12.0</ele><time>2026-04-02T04:13:54Z</time></trkpt><trkpt lat="14.526486308841767" lon="121.01082405782505"><ele>12.0</ele><time>2026-04-02T04:13:55Z</time></trkpt><trkpt lat="14.526557907696258" lon="121.01076568934627"><ele>12.0</ele><time>2026-04-02T04:13:56Z</time></trkpt><trkpt lat="14.526620258544789" lon="121.01070676938988"><ele>12.0</ele><time>2026-04-02T04:13:57Z</time></trkpt><trkpt lat="14.526677976558043" lon="121.01065222745314"><ele>12.0</ele><time>2026-04-02T04:13:58Z</time></trkpt><trkpt lat="14.526726847306026" lon="121.01060604618507"><ele>12.0</ele><time>2026-04-02T04:13:59Z</time></trkpt><trkpt lat="14.526778793997394" lon="121.01056487765558"><ele>12.0</ele><time>2026-04-02T04:14:00Z</time></trkpt><trkpt lat="14.5268194934181" lon="121.01048538445475"><ele>12.0</ele><time>2026-04-02T04:14:01Z</time></trkpt><trkpt lat="14.526877955459575" lon="121.01042672538065"><ele>12.0</ele><time>2026-04-02T04:14:02Z</time></trkpt><trkpt lat="14.526928750964954" lon="121.01034598285632"><ele>12.0</ele><time>2026-04-02T04:14:03Z</time></trkpt><trkpt lat="14.526955376593696" lon="121.01027727307127"><ele>12.0</ele><time>2026-04-02T04:14:04Z</time></trkpt><trkpt lat="14.526979700706141" lon="121.0102004154307"><ele>12.0</ele><time>2026-04-02T04:14:05Z</time></trkpt><trkpt lat="14.526997614543241" lon="121.01011849870989"><ele>12.0</ele><time>2026-04-02T04:14:06Z</time></trkpt><trkpt lat="14.52703061102287" lon="121.0100258490566"><ele>12.0</ele><time>2026-04-02T04:14:07Z</time></trkpt><trkpt lat="14.527072655697971" lon="121.00993747545996"><ele>12.0</ele><time>2026-04-02T04:14:08Z</time></trkpt><trkpt lat="14.52711495225096" lon="121.00983275321133"><ele>12.0</ele><time>2026-04-02T04:14:09Z</time></trkpt><trkpt lat="14.527139295566943" lon="121.00972589787777"><ele>11.333333333333334</ele><time>2026-04-02T04:14:10Z</time></trkpt><trkpt lat="14.527175830457722" lon="121.00957913392209"><ele>10.666666666666668</ele><time>2026-04-02T04:14:11Z</time></trkpt><trkpt lat="14.527208763118335" lon="121.00942342642585"><ele>10.0</ele><time>2026-04-02T04:14:12Z</time></trkpt><trkpt lat="14.527234037179502" lon="121.00925993142336"><ele>10.25</ele><time>2026-04-02T04:14:13Z</time></trkpt><trkpt lat="14.527253290214114" lon="121.0091055307943"><ele>10.5</ele><time>2026-04-02T04:14:14Z</time></trkpt><trkpt lat="14.527275466591316" lon="121.00896667863881"><ele>10.75</ele><time>2026-04-02T04:14:15Z</time></trkpt><trkpt lat="14.527299367028373" lon="121.00882730222358"><ele>11.0</ele><time>2026-04-02T04:14:16Z</time></trkpt><trkpt lat="14.5273178527243" lon="121.00870060586064"><ele>11.0</ele><time>2026-04-02T04:14:17Z</time></trkpt><trkpt lat="14.527336662116186" lon="121.00858276695168"><ele>11.0</ele><time>2026-04-02T04:14:18Z</time></trkpt><trkpt lat="14.527335585205707" lon="121.00847872925662"><ele>11.0</ele><time>2026-04-02T04:14:19Z</time></trkpt><trkpt lat="14.527349142977892" lon="121.00836426170181"><ele>11.0</ele><time>2026-04-02T04:14:20Z</time></trkpt><trkpt lat="14.52737406070552" lon="121.00825193250108"><ele>11.0</ele><time>2026-04-02T04:14:21.001Z</time></trkpt><trkpt lat="14.527389986816626" lon="121.00812891136067"><ele>10.4</ele><time>2026-04-02T04:14:22.001Z</time></trkpt><trkpt lat="14.52740536751517" lon="121.008011793384"><ele>9.8</ele><time>2026-04-02T04:14:23.001Z</time></trkpt><trkpt lat="14.52743163904221" lon="121.00790282474313"><ele>9.200000000000001</ele><time>2026-04-02T04:14:24.001Z</time></trkpt><trkpt lat="14.527440291889945" lon="121.00781943938277"><ele>8.600000000000001</ele><time>2026-04-02T04:14:25.001Z</time></trkpt><trkpt lat="14.527449885758829" lon="121.0077391681799"><ele>8.0</ele><time>2026-04-02T04:14:27.001Z</time></trkpt><trkpt lat="14.52748193727405" lon="121.00765849348014"><ele>8.0</ele><time>2026-04-02T04:14:30.001Z</time></trkpt><trkpt lat="14.527497051644401" lon="121.00755364155768"><ele>8.0</ele><time>2026-04-02T04:14:32.001Z</time></trkpt><trkpt lat="14.527513619370545" lon="121.00746930155996"><ele>8.0</ele><time>2026-04-02T04:14:33.001Z</time></trkpt><trkpt lat="14.527533844053275" lon="121.00737967428196"><ele>8.0</ele><time>2026-04-02T04:14:34Z</time></trkpt><trkpt lat="14.527559223017967" lon="121.00728306766011"><ele>8.0</ele><time>2026-04-02T04:14:35Z</time></trkpt><trkpt lat="14.527574778325091" lon="121.00718546181753"><ele>8.200000000000001</ele><time>2026-04-02T04:14:36Z</time></trkpt><trkpt lat="14.52759425605584" lon="121.00706034263106"><ele>8.4</ele><time>2026-04-02T04:14:37Z</time></trkpt><trkpt lat="14.527610341641417" lon="121.00696310545419"><ele>8.600000000000001</ele><time>2026-04-02T04:14:38Z</time></trkpt><trkpt lat="14.527626834783625" lon="121.00688573828936"><ele>8.8</ele><time>2026-04-02T04:14:39Z</time></trkpt><trkpt lat="14.527637717158727" lon="121.00681451324479"><ele>9.0</ele><time>2026-04-02T04:14:40Z</time></trkpt><trkpt lat="14.527663030515408" lon="121.00670939036875"><ele>8.8</ele><time>2026-04-02T04:14:42Z</time></trkpt><trkpt lat="14.527676124463811" lon="121.00662714048525"><ele>8.600000000000001</ele><time>2026-04-02T04:14:44Z</time></trkpt><trkpt lat="14.527685474058517" lon="121.00653467716006"><ele>8.4</ele><time>2026-04-02T04:14:46Z</time></trkpt><trkpt lat="14.527709139608252" lon="121.0063909714718"><ele>8.200000000000001</ele><time>2026-04-02T04:14:48Z</time></trkpt><trkpt lat="14.527715363445498" lon="121.00631801106013"><ele>8.0</ele><time>2026-04-02T04:14:49Z</time></trkpt><trkpt lat="14.527730827806284" lon="121.00621295892293"><ele>8.0</ele><time>2026-04-02T04:14:51Z</time></trkpt><trkpt lat="14.527743372645293" lon="121.0060953233653"><ele>8.0</ele><time>2026-04-02T04:14:53Z</time></trkpt><trkpt lat="14.527759363095303" lon="121.00600901759928"><ele>8.0</ele><time>2026-04-02T04:14:54Z</time></trkpt><trkpt lat="14.527781255428813" lon="121.00591663703557"><ele>8.0</ele><time>2026-04-02T04:14:55Z</time></trkpt><trkpt lat="14.527814461499611" lon="121.00581379258925"><ele>8.0</ele><time>2026-04-02T04:14:56Z</time></trkpt><trkpt lat="14.52783447485656" lon="121.00569632745051"><ele>7.6000000000000005</ele><time>2026-04-02T04:14:57Z</time></trkpt><trkpt lat="14.527852688916635" lon="121.00561139456379"><ele>7.200000000000001</ele><time>2026-04-02T04:14:58Z</time></trkpt><trkpt lat="14.527853195092774" lon="121.0055276327738"><ele>6.8</ele><time>2026-04-02T04:14:59Z</time></trkpt><trkpt lat="14.52786908547703" lon="121.00541464590708"><ele>6.4</ele><time>2026-04-02T04:15:01Z</time></trkpt><trkpt lat="14.527900341192687" lon="121.00529189367796"><ele>6.0</ele><time>2026-04-02T04:15:03Z</time></trkpt><trkpt lat="14.527916616995352" lon="121.00521675317567"><ele>6.0</ele><time>2026-04-02T04:15:04Z</time></trkpt><trkpt lat="14.527935486606303" lon="121.00512808173985"><ele>6.0</ele><time>2026-04-02T04:15:05Z</time></trkpt><trkpt lat="14.527930813595605" lon="121.00502968297911"><ele>6.0</ele><time>2026-04-02T04:15:06Z</time></trkpt><trkpt lat="14.527944401053468" lon="121.00493473931367"><ele>6.0</ele><time>2026-04-02T04:15:07Z</time></trkpt><trkpt lat="14.527957144059847" lon="121.00484390426868"><ele>6.0</ele><time>2026-04-02T04:15:08Z</time></trkpt><trkpt lat="14.527969886924456" lon="121.0047614552338"><ele>6.0</ele><time>2026-04-02T04:15:09Z</time></trkpt><trkpt lat="14.527984270445746" lon="121.0046806511756"><ele>6.0</ele><time>2026-04-02T04:15:10Z</time></trkpt><trkpt lat="14.528000744757101" lon="121.00458421616649"><ele>6.0</ele><time>2026-04-02T04:15:11Z</time></trkpt><trkpt lat="14.528019292252363" lon="121.00447564546366"><ele>6.0</ele><time>2026-04-02T04:15:12Z</time></trkpt><trkpt lat="14.528034135041153" lon="121.00438876083793"><ele>6.0</ele><time>2026-04-02T04:15:13Z</time></trkpt><trkpt lat="14.52804739181256" lon="121.00431116046249"><ele>6.0</ele><time>2026-04-02T04:15:14Z</time></trkpt><trkpt lat="14.528060627219283" lon="121.00423358260234"><ele>6.0</ele><time>2026-04-02T04:15:15Z</time></trkpt><trkpt lat="14.52807551840955" lon="121.00414633210298"><ele>6.0</ele><time>2026-04-02T04:15:16Z</time></trkpt><trkpt lat="14.528088983862693" lon="121.00406743525156"><ele>6.0</ele><time>2026-04-02T04:15:17Z</time></trkpt><trkpt lat="14.528105489425103" lon="121.00397072572272"><ele>6.0</ele><time>2026-04-02T04:15:18Z</time></trkpt><trkpt lat="14.528120562171743" lon="121.00388241142842"><ele>6.0</ele><time>2026-04-02T04:15:19Z</time></trkpt><trkpt lat="14.528132120596185" lon="121.00381468857694"><ele>6.0</ele><time>2026-04-02T04:15:20Z</time></trkpt><trkpt lat="14.528146422942502" lon="121.00373176587809"><ele>6.0</ele><time>2026-04-02T04:15:21Z</time></trkpt><trkpt lat="14.528161206864787" lon="121.00364575941454"><ele>6.0</ele><time>2026-04-02T04:15:22Z</time></trkpt><trkpt lat="14.528175316882287" lon="121.00356367346792"><ele>6.0</ele><time>2026-04-02T04:15:23Z</time></trkpt><trkpt lat="14.528190537209982" lon="121.00347512816329"><ele>6.0</ele><time>2026-04-02T04:15:24Z</time></trkpt><trkpt lat="14.528206603790023" lon="121.00338063988232"><ele>6.0</ele><time>2026-04-02T04:15:25Z</time></trkpt><trkpt lat="14.528222663923266" lon="121.00328495296644"><ele>6.0</ele><time>2026-04-02T04:15:26Z</time></trkpt><trkpt lat="14.528238555911159" lon="121.00319145493566"><ele>6.0</ele><time>2026-04-02T04:15:27Z</time></trkpt><trkpt lat="14.528256538841854" lon="121.00308632397035"><ele>6.0</ele><time>2026-04-02T04:15:28Z</time></trkpt><trkpt lat="14.528274623424254" lon="121.0029805987404"><ele>6.0</ele><time>2026-04-02T04:15:29Z</time></trkpt><trkpt lat="14.528292823251963" lon="121.00288493921221"><ele>6.0</ele><time>2026-04-02T04:15:30Z</time></trkpt><trkpt lat="14.52830764850274" lon="121.00279874134746"><ele>6.0</ele><time>2026-04-02T04:15:31Z</time></trkpt><trkpt lat="14.528332973241817" lon="121.00271382038903"><ele>6.0</ele><time>2026-04-02T04:15:32Z</time></trkpt><trkpt lat="14.528336542735099" lon="121.00262453083813"><ele>6.0</ele><time>2026-04-02T04:15:33Z</time></trkpt><trkpt lat="14.5283503425335" lon="121.00253038717356"><ele>6.0</ele><time>2026-04-02T04:15:34Z</time></trkpt><trkpt lat="14.528363737398676" lon="121.00244235676075"><ele>6.0</ele><time>2026-04-02T04:15:35Z</time></trkpt><trkpt lat="14.528372943411673" lon="121.00236401174122"><ele>6.0</ele><time>2026-04-02T04:15:36Z</time></trkpt><trkpt lat="14.52838384457988" lon="121.00227392421004"><ele>6.0</ele><time>2026-04-02T04:15:37Z</time></trkpt><trkpt lat="14.52838766446717" lon="121.00219573822127"><ele>6.0</ele><time>2026-04-02T04:15:38Z</time></trkpt><trkpt lat="14.528391315693565" lon="121.00212460980407"><ele>6.0</ele><time>2026-04-02T04:15:39Z</time></trkpt><trkpt lat="14.528395037168602" lon="121.00204430324308"><ele>6.0</ele><time>2026-04-02T04:15:40Z</time></trkpt><trkpt lat="14.528388946436214" lon="121.00197425831651"><ele>6.0</ele><time>2026-04-02T04:15:41Z</time></trkpt><trkpt lat="14.528383773527818" lon="121.00189852046839"><ele>6.0</ele><time>2026-04-02T04:15:42Z</time></trkpt><trkpt lat="14.528366915720001" lon="121.00181739088364"><ele>6.0</ele><time>2026-04-02T04:15:43Z</time></trkpt><trkpt lat="14.528356771014955" lon="121.00173036322016"><ele>6.0</ele><time>2026-04-02T04:15:44Z</time></trkpt><trkpt lat="14.528342445629194" lon="121.00164676526188"><ele>5.833333333333333</ele><time>2026-04-02T04:15:45Z</time></trkpt><trkpt lat="14.528298399389108" lon="121.0015795039734"><ele>5.666666666666667</ele><time>2026-04-02T04:15:46Z</time></trkpt><trkpt lat="14.528268734998212" lon="121.00150431408474"><ele>5.5</ele><time>2026-04-02T04:15:47Z</time></trkpt><trkpt lat="14.528239184610646" lon="121.00142907930082"><ele>5.333333333333334</ele><time>2026-04-02T04:15:48Z</time></trkpt><trkpt lat="14.52817451511156" lon="121.0013385939983"><ele>5.166666666666667</ele><time>2026-04-02T04:15:49Z</time></trkpt><trkpt lat="14.528126136963019" lon="121.00126087585154"><ele>5.0</ele><time>2026-04-02T04:15:50Z</time></trkpt><trkpt lat="14.528082860720565" lon="121.00118318560223"><ele>5.0</ele><time>2026-04-02T04:15:51Z</time></trkpt><trkpt lat="14.528019117664217" lon="121.00111985929252"><ele>5.0</ele><time>2026-04-02T04:15:52Z</time></trkpt><trkpt lat="14.527958052986486" lon="121.00105616543699"><ele>5.0</ele><time>2026-04-02T04:15:53Z</time></trkpt><trkpt lat="14.527893383203521" lon="121.00097052105404"><ele>5.0</ele><time>2026-04-02T04:15:54Z</time></trkpt><trkpt lat="14.52783651522183" lon="121.00088885728269"><ele>5.0</ele><time>2026-04-02T04:15:55Z</time></trkpt><trkpt lat="14.527774533912675" lon="121.00080548868088"><ele>4.833333333333334</ele><time>2026-04-02T04:15:56Z</time></trkpt><trkpt lat="14.527722940521418" lon="121.0007272473225"><ele>4.666666666666667</ele><time>2026-04-02T04:15:57Z</time></trkpt><trkpt lat="14.527669474298916" lon="121.00065375016672"><ele>4.5</ele><time>2026-04-02T04:15:58Z</time></trkpt><trkpt lat="14.527626550816832" lon="121.00058264734851"><ele>4.333333333333333</ele><time>2026-04-02T04:15:59Z</time></trkpt><trkpt lat="14.527588929435348" lon="121.00051376000293"><ele>4.166666666666666</ele><time>2026-04-02T04:16:00Z</time></trkpt><trkpt lat="14.52755815373932" lon="121.0004482071107"><ele>4.0</ele><time>2026-04-02T04:16:01Z</time></trkpt><trkpt lat="14.527529696500755" lon="121.0003708279946"><ele>3.9999999999999996</ele><time>2026-04-02T04:16:02Z</time></trkpt><trkpt lat="14.527510669614674" lon="121.00029973126918"><ele>4.0</ele><time>2026-04-02T04:16:03Z</time></trkpt><trkpt lat="14.527485824623549" lon="121.00020756460674"><ele>4.0</ele><time>2026-04-02T04:16:04Z</time></trkpt><trkpt lat="14.527468481852381" lon="121.00012438686709"><ele>4.0</ele><time>2026-04-02T04:16:05Z</time></trkpt><trkpt lat="14.527452135185245" lon="121.00003387625544"><ele>3.9999999999999996</ele><time>2026-04-02T04:16:06Z</time></trkpt><trkpt lat="14.52743412341248" lon="120.9999381664178"><ele>4.0</ele><time>2026-04-02T04:16:07Z</time></trkpt><trkpt lat="14.527414035308846" lon="120.99985498012018"><ele>3.9999999999999996</ele><time>2026-04-02T04:16:08Z</time></trkpt><trkpt lat="14.527396524474486" lon="120.99977992609664"><ele>4.0</ele><time>2026-04-02T04:16:09Z</time></trkpt><trkpt lat="14.527387118094474" lon="120.99970876470654"><ele>4.0</ele><time>2026-04-02T04:16:10Z</time></trkpt><trkpt lat="14.527372450743862" lon="120.99964266362797"><ele>4.0</ele><time>2026-04-02T04:16:11Z</time></trkpt><trkpt lat="14.527354557885173" lon="120.99953367921115"><ele>3.9999999999999996</ele><time>2026-04-02T04:16:13Z</time></trkpt><trkpt lat="14.527341215306693" lon="120.9994154528984"><ele>4.0</ele><time>2026-04-02T04:16:15Z</time></trkpt><trkpt lat="14.52733952883365" lon="120.99933451794848"><ele>4.0</ele><time>2026-04-02T04:16:16Z</time></trkpt><trkpt lat="14.527335368832746" lon="120.99926455094817"><ele>4.0</ele><time>2026-04-02T04:16:17Z</time></trkpt><trkpt lat="14.527332740963793" lon="120.99915004989553"><ele>4.0</ele><time>2026-04-02T04:16:19Z</time></trkpt><trkpt lat="14.527321312999446" lon="120.99901369875211"><ele>4.0</ele><time>2026-04-02T04:16:21Z</time></trkpt><trkpt lat="14.527319911149094" lon="120.99894435899529"><ele>4.0</ele><time>2026-04-02T04:16:22Z</time></trkpt><trkpt lat="14.527317882444917" lon="120.99886520735572"><ele>4.4</ele><time>2026-04-02T04:16:23Z</time></trkpt><trkpt lat="14.527311620245525" lon="120.99877843353806"><ele>4.800000000000001</ele><time>2026-04-02T04:16:24Z</time></trkpt><trkpt lat="14.527313656960482" lon="120.99869268202391"><ele>5.199999999999999</ele><time>2026-04-02T04:16:25Z</time></trkpt><trkpt lat="14.527307621951604" lon="120.99860651493643"><ele>5.6</ele><time>2026-04-02T04:16:26Z</time></trkpt><trkpt lat="14.527305106836526" lon="120.99850100949767"><ele>6.0</ele><time>2026-04-02T04:16:27Z</time></trkpt><trkpt lat="14.527304643521623" lon="120.99839492147164"><ele>6.166666666666667</ele><time>2026-04-02T04:16:28Z</time></trkpt><trkpt lat="14.527298558418511" lon="120.99830381148435"><ele>6.333333333333334</ele><time>2026-04-02T04:16:29Z</time></trkpt><trkpt lat="14.527296364264867" lon="120.99820908485836"><ele>6.5</ele><time>2026-04-02T04:16:31Z</time></trkpt><trkpt lat="14.527295728107768" lon="120.99813656867792"><ele>6.666666666666667</ele><time>2026-04-02T04:16:32Z</time></trkpt><trkpt lat="14.527301098502146" lon="120.99806613008079"><ele>6.833333333333334</ele><time>2026-04-02T04:16:33Z</time></trkpt><trkpt lat="14.527305823617482" lon="120.99799797409173"><ele>7.0</ele><time>2026-04-02T04:16:34Z</time></trkpt><trkpt lat="14.527298607540102" lon="120.99793152674677"><ele>7.000000000000001</ele><time>2026-04-02T04:16:35Z</time></trkpt><trkpt lat="14.527298885239325" lon="120.99781421955701"><ele>7.0</ele><time>2026-04-02T04:16:37Z</time></trkpt><trkpt lat="14.527310121764424" lon="120.99774099256013"><ele>7.0</ele><time>2026-04-02T04:16:40Z</time></trkpt><trkpt lat="14.527310647345756" lon="120.99767439289266"><ele>7.0</ele><time>2026-04-02T04:16:42Z</time></trkpt><trkpt lat="14.527305230381181" lon="120.99759410886226"><ele>7.000000000000001</ele><time>2026-04-02T04:16:45Z</time></trkpt><trkpt lat="14.52730259804177" lon="120.9975146036093"><ele>7.0</ele><time>2026-04-02T04:16:47Z</time></trkpt><trkpt lat="14.527290897359146" lon="120.99741536855788"><ele>7.3999999999999995</ele><time>2026-04-02T04:16:49Z</time></trkpt><trkpt lat="14.527289453700673" lon="120.99732478489328"><ele>7.799999999999999</ele><time>2026-04-02T04:16:51Z</time></trkpt><trkpt lat="14.527283442164471" lon="120.99722697361356"><ele>8.2</ele><time>2026-04-02T04:16:53Z</time></trkpt><trkpt lat="14.527265786234809" lon="120.99712534824033"><ele>8.6</ele><time>2026-04-02T04:16:55Z</time></trkpt><trkpt lat="14.527225295667382" lon="120.99701439938615"><ele>9.0</ele><time>2026-04-02T04:16:56Z</time></trkpt><trkpt lat="14.527214009067276" lon="120.99693045626022"><ele>9.0</ele><time>2026-04-02T04:16:57Z</time></trkpt><trkpt lat="14.527204077399587" lon="120.99683713727354"><ele>9.0</ele><time>2026-04-02T04:16:58Z</time></trkpt><trkpt lat="14.527190474219022" lon="120.9967437759832"><ele>9.0</ele><time>2026-04-02T04:16:59Z</time></trkpt><trkpt lat="14.527174839483168" lon="120.99664766471977"><ele>9.0</ele><time>2026-04-02T04:17:00Z</time></trkpt><trkpt lat="14.527165140838529" lon="120.99655297508924"><ele>9.0</ele><time>2026-04-02T04:17:01Z</time></trkpt><trkpt lat="14.527159931526064" lon="120.99646765742926"><ele>9.166666666666666</ele><time>2026-04-02T04:17:02Z</time></trkpt><trkpt lat="14.527150459841492" lon="120.99638560089775"><ele>9.333333333333334</ele><time>2026-04-02T04:17:03Z</time></trkpt><trkpt lat="14.527145812003859" lon="120.99630800395866"><ele>9.5</ele><time>2026-04-02T04:17:04Z</time></trkpt><trkpt lat="14.527137596931663" lon="120.99622672590458"><ele>9.666666666666668</ele><time>2026-04-02T04:17:05Z</time></trkpt><trkpt lat="14.527131119002547" lon="120.99614007854808"><ele>9.833333333333334</ele><time>2026-04-02T04:17:06Z</time></trkpt><trkpt lat="14.527123286631518" lon="120.99605463602282"><ele>10.0</ele><time>2026-04-02T04:17:07Z</time></trkpt><trkpt lat="14.527119530291966" lon="120.99596689131079"><ele>10.0</ele><time>2026-04-02T04:17:08Z</time></trkpt><trkpt lat="14.52712277424786" lon="120.99587948899229"><ele>10.0</ele><time>2026-04-02T04:17:09Z</time></trkpt><trkpt lat="14.52713348536445" lon="120.99579125121889"><ele>10.0</ele><time>2026-04-02T04:17:10Z</time></trkpt><trkpt lat="14.52716466773224" lon="120.9957033057643"><ele>10.0</ele><time>2026-04-02T04:17:11Z</time></trkpt><trkpt lat="14.52721327641548" lon="120.99562260179674"><ele>10.0</ele><time>2026-04-02T04:17:12Z</time></trkpt><trkpt lat="14.527264620421587" lon="120.99554121229453"><ele>10.0</ele><time>2026-04-02T04:17:13Z</time></trkpt><trkpt lat="14.52730817649848" lon="120.99546499239017"><ele>9.833333333333334</ele><time>2026-04-02T04:17:14Z</time></trkpt><trkpt lat="14.527347779464467" lon="120.99538435962745"><ele>9.666666666666668</ele><time>2026-04-02T04:17:15Z</time></trkpt><trkpt lat="14.527381665854902" lon="120.9953044810696"><ele>9.5</ele><time>2026-04-02T04:17:16Z</time></trkpt><trkpt lat="14.527405145007469" lon="120.99522296734904"><ele>9.333333333333334</ele><time>2026-04-02T04:17:17Z</time></trkpt><trkpt lat="14.527413069841936" lon="120.99513064435217"><ele>9.166666666666666</ele><time>2026-04-02T04:17:18Z</time></trkpt><trkpt lat="14.527414528987405" lon="120.9950408625686"><ele>9.0</ele><time>2026-04-02T04:17:19Z</time></trkpt><trkpt lat="14.527405102696013" lon="120.99495362142426"><ele>9.0</ele><time>2026-04-02T04:17:20Z</time></trkpt><trkpt lat="14.527394891229822" lon="120.9948546205643"><ele>9.0</ele><time>2026-04-02T04:17:21Z</time></trkpt><trkpt lat="14.5273843224081" lon="120.9947451608698"><ele>9.0</ele><time>2026-04-02T04:17:22Z</time></trkpt><trkpt lat="14.527376230840625" lon="120.99463226809114"><ele>9.0</ele><time>2026-04-02T04:17:23Z</time></trkpt><trkpt lat="14.527368746259645" lon="120.99452948331286"><ele>9.0</ele><time>2026-04-02T04:17:24Z</time></trkpt><trkpt lat="14.527372680147067" lon="120.99443274975182"><ele>9.0</ele><time>2026-04-02T04:17:25Z</time></trkpt><trkpt lat="14.527366868354912" lon="120.99433713027585"><ele>9.0</ele><time>2026-04-02T04:17:26Z</time></trkpt><trkpt lat="14.527364317329242" lon="120.99423338363593"><ele>9.0</ele><time>2026-04-02T04:17:27Z</time></trkpt><trkpt lat="14.527354576069804" lon="120.99414183361131"><ele>9.0</ele><time>2026-04-02T04:17:28Z</time></trkpt><trkpt lat="14.527352598191516" lon="120.99405985100793"><ele>9.0</ele><time>2026-04-02T04:17:29Z</time></trkpt><trkpt lat="14.52735079452348" lon="120.99398533054129"><ele>9.0</ele><time>2026-04-02T04:17:30Z</time></trkpt><trkpt lat="14.527350823208648" lon="120.99387746294155"><ele>9.2</ele><time>2026-04-02T04:17:32Z</time></trkpt><trkpt lat="14.527367856450216" lon="120.99377773012075"><ele>9.4</ele><time>2026-04-02T04:17:34Z</time></trkpt><trkpt lat="14.527479261311914" lon="120.99370887878193"><ele>9.6</ele><time>2026-04-02T04:17:36Z</time></trkpt><trkpt lat="14.52755544142891" lon="120.99366836567593"><ele>9.8</ele><time>2026-04-02T04:17:37Z</time></trkpt><trkpt lat="14.527645204283447" lon="120.99365412251649"><ele>10.0</ele><time>2026-04-02T04:17:38Z</time></trkpt><trkpt lat="14.527752202567633" lon="120.99363790211521"><ele>10.0</ele><time>2026-04-02T04:17:39Z</time></trkpt><trkpt lat="14.527871730764504" lon="120.99363028941352"><ele>10.0</ele><time>2026-04-02T04:17:40Z</time></trkpt><trkpt lat="14.527993557791424" lon="120.99361508680985"><ele>10.0</ele><time>2026-04-02T04:17:41Z</time></trkpt><trkpt lat="14.52813135637055" lon="120.99360361652455"><ele>10.0</ele><time>2026-04-02T04:17:42Z</time></trkpt><trkpt lat="14.52826963183996" lon="120.99359064887723"><ele>9.666666666666668</ele><time>2026-04-02T04:17:43Z</time></trkpt><trkpt lat="14.528425235855943" lon="120.99357274209613"><ele>9.333333333333334</ele><time>2026-04-02T04:17:44Z</time></trkpt><trkpt lat="14.528582793912488" lon="120.99355167925758"><ele>9.0</ele><time>2026-04-02T04:17:45Z</time></trkpt><trkpt lat="14.528747633102686" lon="120.99353148357858"><ele>8.333333333333334</ele><time>2026-04-02T04:17:46Z</time></trkpt><trkpt lat="14.528914883698931" lon="120.99350608803655"><ele>7.666666666666667</ele><time>2026-04-02T04:17:47Z</time></trkpt><trkpt lat="14.52908963952508" lon="120.99347691176135"><ele>7.0</ele><time>2026-04-02T04:17:48Z</time></trkpt><trkpt lat="14.529268394697278" lon="120.99345565157955"><ele>7.0</ele><time>2026-04-02T04:17:49Z</time></trkpt><trkpt lat="14.529450206769868" lon="120.99343086356707"><ele>7.0</ele><time>2026-04-02T04:17:50Z</time></trkpt><trkpt lat="14.529643423087766" lon="120.9934169476409"><ele>7.0</ele><time>2026-04-02T04:17:51Z</time></trkpt><trkpt lat="14.529834523714674" lon="120.99339362677877"><ele>8.0</ele><time>2026-04-02T04:17:52Z</time></trkpt><trkpt lat="14.5300281134761" lon="120.99336323664484"><ele>9.0</ele><time>2026-04-02T04:17:53Z</time></trkpt><trkpt lat="14.530233969272755" lon="120.9933425422725"><ele>10.0</ele><time>2026-04-02T04:17:54Z</time></trkpt><trkpt lat="14.530438102813505" lon="120.99332271379537"><ele>7.666666666666667</ele><time>2026-04-02T04:17:55Z</time></trkpt><trkpt lat="14.530642767179625" lon="120.99330064362758"><ele>5.333333333333334</ele><time>2026-04-02T04:17:56Z</time></trkpt><trkpt lat="14.530847105575672" lon="120.99327111787595"><ele>3.0</ele><time>2026-04-02T04:17:57Z</time></trkpt><trkpt lat="14.531063326056186" lon="120.99324917394803"><ele>4.0</ele><time>2026-04-02T04:17:58Z</time></trkpt><trkpt lat="14.531272293622292" lon="120.99322646933"><ele>5.0</ele><time>2026-04-02T04:17:59Z</time></trkpt><trkpt lat="14.531485972799" lon="120.99320657468927"><ele>6.0</ele><time>2026-04-02T04:18:00Z</time></trkpt><trkpt lat="14.531693848729981" lon="120.9931761350305"><ele>6.0</ele><time>2026-04-02T04:18:01Z</time></trkpt><trkpt lat="14.531910007292733" lon="120.99315457636835"><ele>6.0</ele><time>2026-04-02T04:18:02Z</time></trkpt><trkpt lat="14.532121981607034" lon="120.99313821185726"><ele>6.0</ele><time>2026-04-02T04:18:03Z</time></trkpt><trkpt lat="14.532332555561007" lon="120.99311776396411"><ele>6.666666666666666</ele><time>2026-04-02T04:18:04Z</time></trkpt><trkpt lat="14.532535555675437" lon="120.99308592132117"><ele>7.333333333333333</ele><time>2026-04-02T04:18:05Z</time></trkpt><trkpt lat="14.532737293654945" lon="120.99305675158253"><ele>8.0</ele><time>2026-04-02T04:18:06Z</time></trkpt><trkpt lat="14.53293950005578" lon="120.99303069288962"><ele>9.666666666666666</ele><time>2026-04-02T04:18:07Z</time></trkpt><trkpt lat="14.533141577022855" lon="120.99299513698072"><ele>11.333333333333332</ele><time>2026-04-02T04:18:08Z</time></trkpt><trkpt lat="14.533346981425824" lon="120.99297564380049"><ele>13.0</ele><time>2026-04-02T04:18:09Z</time></trkpt><trkpt lat="14.53356016101741" lon="120.99295155287098"><ele>11.0</ele><time>2026-04-02T04:18:10Z</time></trkpt><trkpt lat="14.533765514409442" lon="120.9929211685191"><ele>9.0</ele><time>2026-04-02T04:18:11Z</time></trkpt><trkpt lat="14.533977415805309" lon="120.99289106011214"><ele>7.0</ele><time>2026-04-02T04:18:12Z</time></trkpt><trkpt lat="14.534189734816492" lon="120.99286233999504"><ele>7.0</ele><time>2026-04-02T04:18:13Z</time></trkpt><trkpt lat="14.53440155794272" lon="120.99283493942546"><ele>7.0</ele><time>2026-04-02T04:18:14Z</time></trkpt><trkpt lat="14.534612906551892" lon="120.99280912014005"><ele>7.0</ele><time>2026-04-02T04:18:15Z</time></trkpt><trkpt lat="14.534823770314313" lon="120.99278428661933"><ele>7.666666666666667</ele><time>2026-04-02T04:18:16Z</time></trkpt><trkpt lat="14.53504576696086" lon="120.99275636508769"><ele>8.333333333333334</ele><time>2026-04-02T04:18:17Z</time></trkpt><trkpt lat="14.535261774210138" lon="120.99273051487057"><ele>9.0</ele><time>2026-04-02T04:18:18Z</time></trkpt><trkpt lat="14.535463899205512" lon="120.99270289351323"><ele>9.0</ele><time>2026-04-02T04:18:19Z</time></trkpt><trkpt lat="14.535679932632105" lon="120.99268581061557"><ele>9.0</ele><time>2026-04-02T04:18:20Z</time></trkpt><trkpt lat="14.535893930687113" lon="120.99265717696336"><ele>9.0</ele><time>2026-04-02T04:18:21Z</time></trkpt><trkpt lat="14.536104425208215" lon="120.99263650184659"><ele>10.666666666666668</ele><time>2026-04-02T04:18:22Z</time></trkpt><trkpt lat="14.536314219817747" lon="120.99261461656893"><ele>12.333333333333334</ele><time>2026-04-02T04:18:23Z</time></trkpt><trkpt lat="14.53651124956979" lon="120.99259281495833"><ele>14.0</ele><time>2026-04-02T04:18:24Z</time></trkpt><trkpt lat="14.536691714120643" lon="120.9925687601584"><ele>14.0</ele><time>2026-04-02T04:18:25Z</time></trkpt><trkpt lat="14.536848122996293" lon="120.99254804906116"><ele>14.0</ele><time>2026-04-02T04:18:26Z</time></trkpt><trkpt lat="14.537007224609445" lon="120.99252992666405"><ele>14.0</ele><time>2026-04-02T04:18:27Z</time></trkpt><trkpt lat="14.537159573319265" lon="120.99250995395471"><ele>11.75</ele><time>2026-04-02T04:18:28Z</time></trkpt><trkpt lat="14.537296814778951" lon="120.99249563761263"><ele>9.5</ele><time>2026-04-02T04:18:29Z</time></trkpt><trkpt lat="14.537441506761938" lon="120.99248148496703"><ele>7.25</ele><time>2026-04-02T04:18:30Z</time></trkpt><trkpt lat="14.537585253934592" lon="120.99246672978315"><ele>5.0</ele><time>2026-04-02T04:18:31Z</time></trkpt><trkpt lat="14.537715952463781" lon="120.99245417392041"><ele>5.0</ele><time>2026-04-02T04:18:32Z</time></trkpt><trkpt lat="14.537852684653199" lon="120.99243684813577"><ele>5.0</ele><time>2026-04-02T04:18:33Z</time></trkpt><trkpt lat="14.537985534013895" lon="120.9924190647676"><ele>5.0</ele><time>2026-04-02T04:18:34Z</time></trkpt><trkpt lat="14.538118782498417" lon="120.9924058372934"><ele>5.0</ele><time>2026-04-02T04:18:35Z</time></trkpt><trkpt lat="14.53822968505078" lon="120.99239230627164"><ele>5.2</ele><time>2026-04-02T04:18:36Z</time></trkpt><trkpt lat="14.538341246976191" lon="120.99238201451853"><ele>5.4</ele><time>2026-04-02T04:18:37Z</time></trkpt><trkpt lat="14.538444679601556" lon="120.9923683460994"><ele>5.6</ele><time>2026-04-02T04:18:38Z</time></trkpt><trkpt lat="14.53855147044943" lon="120.99235871208828"><ele>5.8</ele><time>2026-04-02T04:18:39Z</time></trkpt><trkpt lat="14.538660380337614" lon="120.99234715121607"><ele>6.0</ele><time>2026-04-02T04:18:40Z</time></trkpt><trkpt lat="14.538775472516287" lon="120.99233023593142"><ele>6.0</ele><time>2026-04-02T04:18:41Z</time></trkpt><trkpt lat="14.538903016169659" lon="120.9923155129437"><ele>6.0</ele><time>2026-04-02T04:18:42Z</time></trkpt><trkpt lat="14.539030964101089" lon="120.99230008405819"><ele>6.0</ele><time>2026-04-02T04:18:43Z</time></trkpt><trkpt lat="14.539157960057093" lon="120.99228132587156"><ele>6.0</ele><time>2026-04-02T04:18:44Z</time></trkpt><trkpt lat="14.539306884400203" lon="120.99227458987968"><ele>6.0</ele><time>2026-04-02T04:18:45Z</time></trkpt><trkpt lat="14.53944871574115" lon="120.99226550602368"><ele>6.0</ele><time>2026-04-02T04:18:46Z</time></trkpt><trkpt lat="14.539596982532373" lon="120.99224543955518"><ele>6.0</ele><time>2026-04-02T04:18:47Z</time></trkpt><trkpt lat="14.539747402091026" lon="120.99224081265214"><ele>6.0</ele><time>2026-04-02T04:18:48Z</time></trkpt><trkpt lat="14.539889377384272" lon="120.99222663352329"><ele>6.75</ele><time>2026-04-02T04:18:49Z</time></trkpt><trkpt lat="14.540041835122105" lon="120.99220383469186"><ele>7.5</ele><time>2026-04-02T04:18:50Z</time></trkpt><trkpt lat="14.54018027281242" lon="120.9921837396795"><ele>8.25</ele><time>2026-04-02T04:18:51Z</time></trkpt><trkpt lat="14.540324548683708" lon="120.99216748273497"><ele>9.0</ele><time>2026-04-02T04:18:52Z</time></trkpt><trkpt lat="14.540466787099831" lon="120.9921470610687"><ele>12.666666666666668</ele><time>2026-04-02T04:18:53Z</time></trkpt><trkpt lat="14.540613609721632" lon="120.99212523633841"><ele>16.333333333333336</ele><time>2026-04-02T04:18:54Z</time></trkpt><trkpt lat="14.540764074406928" lon="120.99210093498198"><ele>20.0</ele><time>2026-04-02T04:18:55Z</time></trkpt><trkpt lat="14.540921091286927" lon="120.99207233165886"><ele>20.0</ele><time>2026-04-02T04:18:56Z</time></trkpt><trkpt lat="14.54108218856628" lon="120.99204135005306"><ele>20.0</ele><time>2026-04-02T04:18:57Z</time></trkpt><trkpt lat="14.54124914282009" lon="120.99201218131942"><ele>20.0</ele><time>2026-04-02T04:18:58Z</time></trkpt><trkpt lat="14.541419553659342" lon="120.99198677018427"><ele>15.666666666666668</ele><time>2026-04-02T04:18:59Z</time></trkpt><trkpt lat="14.541585195810754" lon="120.99196205367349"><ele>11.333333333333334</ele><time>2026-04-02T04:19:00Z</time></trkpt><trkpt lat="14.541727318339642" lon="120.99193483072385"><ele>7.0</ele><time>2026-04-02T04:19:01Z</time></trkpt><trkpt lat="14.54187618514769" lon="120.99191545964625"><ele>7.0</ele><time>2026-04-02T04:19:02Z</time></trkpt><trkpt lat="14.542017713688695" lon="120.9918960679457"><ele>7.0</ele><time>2026-04-02T04:19:03Z</time></trkpt><trkpt lat="14.542158759843032" lon="120.99188085446468"><ele>7.0</ele><time>2026-04-02T04:19:04Z</time></trkpt><trkpt lat="14.54230933398002" lon="120.99186652301482"><ele>7.0</ele><time>2026-04-02T04:19:05Z</time></trkpt><trkpt lat="14.542458846985118" lon="120.99184005318956"><ele>7.0</ele><time>2026-04-02T04:19:06Z</time></trkpt><trkpt lat="14.542617625896495" lon="120.9918111508965"><ele>7.0</ele><time>2026-04-02T04:19:07Z</time></trkpt><trkpt lat="14.542780335189624" lon="120.99178205920983"><ele>7.0</ele><time>2026-04-02T04:19:08Z</time></trkpt><trkpt lat="14.54294543898989" lon="120.99175315770952"><ele>7.0</ele><time>2026-04-02T04:19:09Z</time></trkpt><trkpt lat="14.54311003071316" lon="120.99172177775945"><ele>7.0</ele><time>2026-04-02T04:19:10Z</time></trkpt><trkpt lat="14.543278662505118" lon="120.99169018349072"><ele>7.0</ele><time>2026-04-02T04:19:11Z</time></trkpt><trkpt lat="14.5434498274818" lon="120.99166541873643"><ele>6.666666666666667</ele><time>2026-04-02T04:19:12Z</time></trkpt><trkpt lat="14.543597179563667" lon="120.99162651680761"><ele>6.333333333333334</ele><time>2026-04-02T04:19:13Z</time></trkpt><trkpt lat="14.5437554192651" lon="120.9916020964577"><ele>6.0</ele><time>2026-04-02T04:19:14Z</time></trkpt><trkpt lat="14.543915879944995" lon="120.99157668887415"><ele>6.666666666666666</ele><time>2026-04-02T04:19:15Z</time></trkpt><trkpt lat="14.544071938973142" lon="120.99154357015554"><ele>7.333333333333333</ele><time>2026-04-02T04:19:16Z</time></trkpt><trkpt lat="14.544240491643816" lon="120.99151618121607"><ele>8.0</ele><time>2026-04-02T04:19:17Z</time></trkpt><trkpt lat="14.54440776350601" lon="120.9914910822163"><ele>9.0</ele><time>2026-04-02T04:19:18Z</time></trkpt><trkpt lat="14.544572794375714" lon="120.99145853826751"><ele>10.0</ele><time>2026-04-02T04:19:19Z</time></trkpt><trkpt lat="14.544739859351319" lon="120.99142512853261"><ele>11.0</ele><time>2026-04-02T04:19:20Z</time></trkpt><trkpt lat="14.544908504012314" lon="120.99139588222295"><ele>11.0</ele><time>2026-04-02T04:19:21Z</time></trkpt><trkpt lat="14.545058335917268" lon="120.99136325934644"><ele>11.0</ele><time>2026-04-02T04:19:22Z</time></trkpt><trkpt lat="14.545207817420737" lon="120.99133196295305"><ele>11.0</ele><time>2026-04-02T04:19:23Z</time></trkpt><trkpt lat="14.545361552387956" lon="120.99129725730957"><ele>9.666666666666666</ele><time>2026-04-02T04:19:24Z</time></trkpt><trkpt lat="14.545518916676956" lon="120.99126468979752"><ele>8.333333333333334</ele><time>2026-04-02T04:19:25Z</time></trkpt><trkpt lat="14.545673022407753" lon="120.99122746275323"><ele>7.0</ele><time>2026-04-02T04:19:26Z</time></trkpt><trkpt lat="14.545825443063707" lon="120.9911893596655"><ele>7.0</ele><time>2026-04-02T04:19:27Z</time></trkpt><trkpt lat="14.545991445298005" lon="120.99114997333285"><ele>7.0</ele><time>2026-04-02T04:19:28Z</time></trkpt><trkpt lat="14.546152048662174" lon="120.99111646204989"><ele>7.0</ele><time>2026-04-02T04:19:29Z</time></trkpt><trkpt lat="14.546304343839203" lon="120.99108019169967"><ele>8.666666666666668</ele><time>2026-04-02T04:19:30Z</time></trkpt><trkpt lat="14.546460772295289" lon="120.99103802177659"><ele>10.333333333333334</ele><time>2026-04-02T04:19:31Z</time></trkpt><trkpt lat="14.546624180986184" lon="120.99100140642479"><ele>12.0</ele><time>2026-04-02T04:19:32Z</time></trkpt><trkpt lat="14.546784891645043" lon="120.99095471864823"><ele>12.0</ele><time>2026-04-02T04:19:33Z</time></trkpt><trkpt lat="14.54695396156418" lon="120.99091523003082"><ele>12.0</ele><time>2026-04-02T04:19:34Z</time></trkpt><trkpt lat="14.547122584815025" lon="120.9908759127586"><ele>12.0</ele><time>2026-04-02T04:19:35Z</time></trkpt><trkpt lat="14.547289843355069" lon="120.99082910914153"><ele>10.666666666666666</ele><time>2026-04-02T04:19:36Z</time></trkpt><trkpt lat="14.547462743973911" lon="120.9907893473844"><ele>9.333333333333332</ele><time>2026-04-02T04:19:37Z</time></trkpt><trkpt lat="14.54764529614931" lon="120.99075761675228"><ele>8.0</ele><time>2026-04-02T04:19:38Z</time></trkpt><trkpt lat="14.547819238124138" lon="120.99071797667493"><ele>10.333333333333332</ele><time>2026-04-02T04:19:39Z</time></trkpt><trkpt lat="14.547981533408533" lon="120.99067871564704"><ele>12.666666666666666</ele><time>2026-04-02T04:19:40Z</time></trkpt><trkpt lat="14.548133003313637" lon="120.99064422623717"><ele>15.0</ele><time>2026-04-02T04:19:41Z</time></trkpt><trkpt lat="14.548281793770018" lon="120.99060376494839"><ele>15.0</ele><time>2026-04-02T04:19:42Z</time></trkpt><trkpt lat="14.548431228276778" lon="120.99056499789401"><ele>15.0</ele><time>2026-04-02T04:19:43Z</time></trkpt><trkpt lat="14.548585472957408" lon="120.99052694389522"><ele>15.0</ele><time>2026-04-02T04:19:44Z</time></trkpt><trkpt lat="14.548739492997234" lon="120.9904918003737"><ele>12.666666666666666</ele><time>2026-04-02T04:19:45Z</time></trkpt><trkpt lat="14.548886671924762" lon="120.9904524260607"><ele>10.333333333333332</ele><time>2026-04-02T04:19:46Z</time></trkpt><trkpt lat="14.549041170274421" lon="120.99041409853722"><ele>8.0</ele><time>2026-04-02T04:19:47Z</time></trkpt><trkpt lat="14.549186315507686" lon="120.99037668243321"><ele>8.0</ele><time>2026-04-02T04:19:48Z</time></trkpt><trkpt lat="14.549335758001275" lon="120.99034260339828"><ele>8.0</ele><time>2026-04-02T04:19:49Z</time></trkpt><trkpt lat="14.549482229381386" lon="120.99031045425532"><ele>8.0</ele><time>2026-04-02T04:19:50Z</time></trkpt><trkpt lat="14.54963187674037" lon="120.9902771713471"><ele>8.333333333333332</ele><time>2026-04-02T04:19:51Z</time></trkpt><trkpt lat="14.549786058514634" lon="120.99024294349836"><ele>8.666666666666666</ele><time>2026-04-02T04:19:52Z</time></trkpt><trkpt lat="14.549939882296338" lon="120.99020877475212"><ele>9.0</ele><time>2026-04-02T04:19:53Z</time></trkpt><trkpt lat="14.550095568851646" lon="120.99017857428731"><ele>9.0</ele><time>2026-04-02T04:19:54Z</time></trkpt><trkpt lat="14.550250226469505" lon="120.99014235495365"><ele>9.0</ele><time>2026-04-02T04:19:55Z</time></trkpt><trkpt lat="14.55040826771168" lon="120.99010777815056"><ele>9.0</ele><time>2026-04-02T04:19:56Z</time></trkpt><trkpt lat="14.550564507863582" lon="120.99007257194893"><ele>9.0</ele><time>2026-04-02T04:19:57Z</time></trkpt><trkpt lat="14.55071368169343" lon="120.99003675168119"><ele>9.0</ele><time>2026-04-02T04:19:58Z</time></trkpt><trkpt lat="14.550877299910276" lon="120.99000663330287"><ele>9.0</ele><time>2026-04-02T04:19:59Z</time></trkpt><trkpt lat="14.551025771720878" lon="120.98997238484874"><ele>9.0</ele><time>2026-04-02T04:20:00Z</time></trkpt><trkpt lat="14.551158081813458" lon="120.98994018154285"><ele>9.0</ele><time>2026-04-02T04:20:01Z</time></trkpt><trkpt lat="14.55128792926959" lon="120.9899107698906"><ele>9.0</ele><time>2026-04-02T04:20:02Z</time></trkpt><trkpt lat="14.55140874512389" lon="120.9898835825977"><ele>9.0</ele><time>2026-04-02T04:20:03Z</time></trkpt><trkpt lat="14.551525604932886" lon="120.98985618882794"><ele>9.0</ele><time>2026-04-02T04:20:04Z</time></trkpt><trkpt lat="14.551640344755201" lon="120.98983215025801"><ele>9.0</ele><time>2026-04-02T04:20:05Z</time></trkpt><trkpt lat="14.551735793626136" lon="120.98981532580021"><ele>9.0</ele><time>2026-04-02T04:20:06Z</time></trkpt><trkpt lat="14.551836769115798" lon="120.98979684132797"><ele>9.0</ele><time>2026-04-02T04:20:07Z</time></trkpt><trkpt lat="14.551918684097004" lon="120.98977941404142"><ele>9.0</ele><time>2026-04-02T04:20:08Z</time></trkpt><trkpt lat="14.552002448010128" lon="120.98976476147912"><ele>9.166666666666666</ele><time>2026-04-02T04:20:09Z</time></trkpt><trkpt lat="14.552076543528377" lon="120.9897519465452"><ele>9.333333333333334</ele><time>2026-04-02T04:20:10Z</time></trkpt><trkpt lat="14.552164494297429" lon="120.98976368007511"><ele>9.5</ele><time>2026-04-02T04:20:12Z</time></trkpt><trkpt lat="14.55222049528013" lon="120.98984068747129"><ele>9.666666666666668</ele><time>2026-04-02T04:20:14Z</time></trkpt><trkpt lat="14.552248336482467" lon="120.98990979841803"><ele>9.833333333333334</ele><time>2026-04-02T04:20:15Z</time></trkpt><trkpt lat="14.552269799587595" lon="120.98998401043333"><ele>10.0</ele><time>2026-04-02T04:20:16Z</time></trkpt><trkpt lat="14.55230380164764" lon="120.99007679460314"><ele>10.0</ele><time>2026-04-02T04:20:17Z</time></trkpt><trkpt lat="14.552330199461748" lon="120.99017499702435"><ele>10.0</ele><time>2026-04-02T04:20:18Z</time></trkpt><trkpt lat="14.552371605601694" lon="120.99026954296981"><ele>10.0</ele><time>2026-04-02T04:20:19Z</time></trkpt><trkpt lat="14.552409322736887" lon="120.99037104188072"><ele>10.0</ele><time>2026-04-02T04:20:20Z</time></trkpt><trkpt lat="14.552440043169916" lon="120.99047251638203"><ele>10.0</ele><time>2026-04-02T04:20:21Z</time></trkpt><trkpt lat="14.55247994304028" lon="120.9905784492446"><ele>10.0</ele><time>2026-04-02T04:20:22Z</time></trkpt><trkpt lat="14.552518629534319" lon="120.99068983561472"><ele>10.0</ele><time>2026-04-02T04:20:23Z</time></trkpt><trkpt lat="14.55255645814838" lon="120.9908040303511"><ele>10.0</ele><time>2026-04-02T04:20:24Z</time></trkpt><trkpt lat="14.552602399235816" lon="120.9909270829499"><ele>10.0</ele><time>2026-04-02T04:20:25Z</time></trkpt><trkpt lat="14.552647020841155" lon="120.9910522131433"><ele>10.0</ele><time>2026-04-02T04:20:26Z</time></trkpt><trkpt lat="14.552695606307692" lon="120.99118763430458"><ele>10.0</ele><time>2026-04-02T04:20:27Z</time></trkpt><trkpt lat="14.552743063960778" lon="120.99132472749314"><ele>10.0</ele><time>2026-04-02T04:20:28Z</time></trkpt><trkpt lat="14.5527941758642" lon="120.99146723182913"><ele>10.0</ele><time>2026-04-02T04:20:29Z</time></trkpt><trkpt lat="14.5528362417189" lon="120.99161396922312"><ele>10.0</ele><time>2026-04-02T04:20:30Z</time></trkpt><trkpt lat="14.55288533323124" lon="120.99176847017853"><ele>10.0</ele><time>2026-04-02T04:20:31Z</time></trkpt><trkpt lat="14.552932553807524" lon="120.9919251103996"><ele>10.0</ele><time>2026-04-02T04:20:32Z</time></trkpt><trkpt lat="14.55297871108859" lon="120.99208899130828"><ele>10.0</ele><time>2026-04-02T04:20:33Z</time></trkpt><trkpt lat="14.553029651632269" lon="120.99225271398552"><ele>10.0</ele><time>2026-04-02T04:20:34Z</time></trkpt><trkpt lat="14.553078056128246" lon="120.99242107065817"><ele>10.0</ele><time>2026-04-02T04:20:35Z</time></trkpt><trkpt lat="14.553127024839407" lon="120.99258997971518"><ele>9.666666666666668</ele><time>2026-04-02T04:20:36Z</time></trkpt><trkpt lat="14.553172488189956" lon="120.99276648094047"><ele>9.333333333333334</ele><time>2026-04-02T04:20:37Z</time></trkpt><trkpt lat="14.553211907319497" lon="120.99295060343006"><ele>9.0</ele><time>2026-04-02T04:20:38Z</time></trkpt><trkpt lat="14.553246506448152" lon="120.99313457768693"><ele>9.0</ele><time>2026-04-02T04:20:39Z</time></trkpt><trkpt lat="14.553272844758023" lon="120.99330792454732"><ele>9.0</ele><time>2026-04-02T04:20:40Z</time></trkpt><trkpt lat="14.553295105604716" lon="120.99347564782933"><ele>9.0</ele><time>2026-04-02T04:20:41Z</time></trkpt><trkpt lat="14.55330774637562" lon="120.99363323875902"><ele>9.25</ele><time>2026-04-02T04:20:42Z</time></trkpt><trkpt lat="14.553317057897294" lon="120.99378090951153"><ele>9.5</ele><time>2026-04-02T04:20:43Z</time></trkpt><trkpt lat="14.553325552454877" lon="120.99392195072404"><ele>9.75</ele><time>2026-04-02T04:20:44Z</time></trkpt><trkpt lat="14.553334397188245" lon="120.99403753134075"><ele>10.0</ele><time>2026-04-02T04:20:45Z</time></trkpt><trkpt lat="14.55334941184502" lon="120.99414959143277"><ele>9.4</ele><time>2026-04-02T04:20:46Z</time></trkpt><trkpt lat="14.55337133565092" lon="120.99425300966561"><ele>8.8</ele><time>2026-04-02T04:20:47Z</time></trkpt><trkpt lat="14.553378381343357" lon="120.99436570075005"><ele>8.2</ele><time>2026-04-02T04:20:48Z</time></trkpt><trkpt lat="14.553392043024155" lon="120.99448046781123"><ele>7.6</ele><time>2026-04-02T04:20:49Z</time></trkpt><trkpt lat="14.553411827445787" lon="120.99460351276153"><ele>7.0</ele><time>2026-04-02T04:20:50Z</time></trkpt><trkpt lat="14.55343721756224" lon="120.99472859127191"><ele>7.0</ele><time>2026-04-02T04:20:51Z</time></trkpt><trkpt lat="14.553460622557479" lon="120.99486635587208"><ele>7.0</ele><time>2026-04-02T04:20:51.999Z</time></trkpt><trkpt lat="14.553484133649073" lon="120.99499572682326"><ele>7.0</ele><time>2026-04-02T04:20:52.999Z</time></trkpt><trkpt lat="14.55350160968712" lon="120.99511732613874"><ele>7.0</ele><time>2026-04-02T04:20:53.999Z</time></trkpt><trkpt lat="14.553517418509273" lon="120.9952332407662"><ele>8.2</ele><time>2026-04-02T04:20:54.999Z</time></trkpt><trkpt lat="14.553529476632955" lon="120.99533809093734"><ele>9.399999999999999</ele><time>2026-04-02T04:20:55.999Z</time></trkpt><trkpt lat="14.553562035570451" lon="120.99543967576419"><ele>10.600000000000001</ele><time>2026-04-02T04:20:56.999Z</time></trkpt><trkpt lat="14.553593272579711" lon="120.995550886595"><ele>11.8</ele><time>2026-04-02T04:20:57.999Z</time></trkpt><trkpt lat="14.55361239287434" lon="120.99565636691793"><ele>13.0</ele><time>2026-04-02T04:20:58.999Z</time></trkpt><trkpt lat="14.553639394629041" lon="120.99577540502506"><ele>13.75</ele><time>2026-04-02T04:20:59.999Z</time></trkpt><trkpt lat="14.553665301682017" lon="120.99590015523455"><ele>14.5</ele><time>2026-04-02T04:21:00.999Z</time></trkpt><trkpt lat="14.553691313881005" lon="120.99603152959345"><ele>15.25</ele><time>2026-04-02T04:21:01.999Z</time></trkpt><trkpt lat="14.553725265719194" lon="120.996150966182"><ele>16.0</ele><time>2026-04-02T04:21:02.999Z</time></trkpt><trkpt lat="14.553754038321912" lon="120.99628327244088"><ele>14.600000000000001</ele><time>2026-04-02T04:21:03.999Z</time></trkpt><trkpt lat="14.553779832591202" lon="120.99640222407682"><ele>13.200000000000001</ele><time>2026-04-02T04:21:04.999Z</time></trkpt><trkpt lat="14.553805362296188" lon="120.99651261793727"><ele>11.8</ele><time>2026-04-02T04:21:05.999Z</time></trkpt><trkpt lat="14.553828182143354" lon="120.99661894836292"><ele>10.4</ele><time>2026-04-02T04:21:06.999Z</time></trkpt><trkpt lat="14.553847802036653" lon="120.9967069204307"><ele>9.0</ele><time>2026-04-02T04:21:07.999Z</time></trkpt><trkpt lat="14.553871652408175" lon="120.99679367351207"><ele>8.5</ele><time>2026-04-02T04:21:08.999Z</time></trkpt><trkpt lat="14.55388531172606" lon="120.99687474612551"><ele>8.0</ele><time>2026-04-02T04:21:09.999Z</time></trkpt><trkpt lat="14.55390348701331" lon="120.99694080301227"><ele>7.5</ele><time>2026-04-02T04:21:10.999Z</time></trkpt><trkpt lat="14.553943409285303" lon="120.99705102027815"><ele>7.0</ele><time>2026-04-02T04:21:12.999Z</time></trkpt><trkpt lat="14.553977078134064" lon="120.99710861479979"><ele>6.5</ele><time>2026-04-02T04:21:14.999Z</time></trkpt><trkpt lat="14.554036267244367" lon="120.99715771119804"><ele>6.0</ele><time>2026-04-02T04:21:16.999Z</time></trkpt><trkpt lat="14.554124371031625" lon="120.99717880034899"><ele>6.0</ele><time>2026-04-02T04:21:18.999Z</time></trkpt><trkpt lat="14.55418589271007" lon="120.99719442639275"><ele>6.0</ele><time>2026-04-02T04:21:20.999Z</time></trkpt><trkpt lat="14.55425607437906" lon="120.9971758442559"><ele>6.0</ele><time>2026-04-02T04:21:22.999Z</time></trkpt><trkpt lat="14.554363582489524" lon="120.99714777105339"><ele>6.0</ele><time>2026-04-02T04:21:26Z</time></trkpt><trkpt lat="14.554446469554504" lon="120.99714385568784"><ele>6.0</ele><time>2026-04-02T04:21:29Z</time></trkpt><trkpt lat="14.554527630363916" lon="120.99712681067895"><ele>6.0</ele><time>2026-04-02T04:21:32Z</time></trkpt><trkpt lat="14.554615498649635" lon="120.99710644450631"><ele>6.75</ele><time>2026-04-02T04:21:34Z</time></trkpt><trkpt lat="14.554767167343131" lon="120.99707324674092"><ele>7.5</ele><time>2026-04-02T04:21:36Z</time></trkpt><trkpt lat="14.554866393135558" lon="120.99705172225309"><ele>8.25</ele><time>2026-04-02T04:21:37Z</time></trkpt><trkpt lat="14.554955978375851" lon="120.99703228902958"><ele>9.0</ele><time>2026-04-02T04:21:38Z</time></trkpt><trkpt lat="14.555059354800218" lon="120.9970098641671"><ele>9.0</ele><time>2026-04-02T04:21:39Z</time></trkpt><trkpt lat="14.555158675406553" lon="120.99698831911522"><ele>9.0</ele><time>2026-04-02T04:21:40Z</time></trkpt><trkpt lat="14.555271494990448" lon="120.99696384578351"><ele>9.0</ele><time>2026-04-02T04:21:41Z</time></trkpt><trkpt lat="14.555369641462818" lon="120.99694255541607"><ele>9.0</ele><time>2026-04-02T04:21:42Z</time></trkpt><trkpt lat="14.555455062007118" lon="120.99692402560358"><ele>9.0</ele><time>2026-04-02T04:21:43Z</time></trkpt><trkpt lat="14.555530483996522" lon="120.99690747702243"><ele>9.0</ele><time>2026-04-02T04:21:44Z</time></trkpt><trkpt lat="14.555602522703333" lon="120.9968916806746"><ele>9.0</ele><time>2026-04-02T04:21:45Z</time></trkpt><trkpt lat="14.555665959881138" lon="120.99687770284463"><ele>9.0</ele><time>2026-04-02T04:21:46Z</time></trkpt><trkpt lat="14.555792696466256" lon="120.9968494646824"><ele>9.0</ele><time>2026-04-02T04:21:48Z</time></trkpt><trkpt lat="14.555859555689382" lon="120.99683473086856"><ele>9.0</ele><time>2026-04-02T04:21:49Z</time></trkpt><trkpt lat="14.5559366452859" lon="120.99681805403993"><ele>9.0</ele><time>2026-04-02T04:21:50Z</time></trkpt><trkpt lat="14.556025349511783" lon="120.99679919362386"><ele>9.0</ele><time>2026-04-02T04:21:51Z</time></trkpt><trkpt lat="14.556103316583773" lon="120.99678261615865"><ele>9.0</ele><time>2026-04-02T04:21:52Z</time></trkpt><trkpt lat="14.556179852713967" lon="120.9967663429443"><ele>9.0</ele><time>2026-04-02T04:21:53Z</time></trkpt><trkpt lat="14.556244627954717" lon="120.99675204336145"><ele>9.0</ele><time>2026-04-02T04:21:54Z</time></trkpt><trkpt lat="14.55633086935366" lon="120.99673259662515"><ele>9.0</ele><time>2026-04-02T04:21:55Z</time></trkpt><trkpt lat="14.55639841613112" lon="120.996716235566"><ele>9.0</ele><time>2026-04-02T04:21:56Z</time></trkpt><trkpt lat="14.55647459647413" lon="120.99669872917634"><ele>9.166666666666666</ele><time>2026-04-02T04:21:57Z</time></trkpt><trkpt lat="14.556553606875775" lon="120.99668039384149"><ele>9.333333333333334</ele><time>2026-04-02T04:21:58Z</time></trkpt><trkpt lat="14.55663513282038" lon="120.9966614747396"><ele>9.5</ele><time>2026-04-02T04:21:59Z</time></trkpt><trkpt lat="14.556714281508398" lon="120.99664310731661"><ele>9.666666666666668</ele><time>2026-04-02T04:22:00Z</time></trkpt><trkpt lat="14.556793452584994" lon="120.99662493249704"><ele>9.833333333333334</ele><time>2026-04-02T04:22:01Z</time></trkpt><trkpt lat="14.556861501034364" lon="120.9966093569545"><ele>10.0</ele><time>2026-04-02T04:22:02Z</time></trkpt><trkpt lat="14.556951077827076" lon="120.99658889903286"><ele>10.2</ele><time>2026-04-02T04:22:04Z</time></trkpt><trkpt lat="14.557039807443976" lon="120.99658602834133"><ele>10.4</ele><time>2026-04-02T04:22:06Z</time></trkpt><trkpt lat="14.557135606580466" lon="120.99654603022101"><ele>10.600000000000001</ele><time>2026-04-02T04:22:08Z</time></trkpt><trkpt lat="14.557254238047186" lon="120.9965341819128"><ele>10.8</ele><time>2026-04-02T04:22:10Z</time></trkpt><trkpt lat="14.557370895793463" lon="120.99649725675968"><ele>11.0</ele><time>2026-04-02T04:22:12Z</time></trkpt><trkpt lat="14.557448142201569" lon="120.99648969580656"><ele>11.0</ele><time>2026-04-02T04:22:13Z</time></trkpt><trkpt lat="14.557520158891679" lon="120.99645935817838"><ele>11.0</ele><time>2026-04-02T04:22:14Z</time></trkpt><trkpt lat="14.55760090581855" lon="120.99643851225134"><ele>11.0</ele><time>2026-04-02T04:22:15Z</time></trkpt><trkpt lat="14.55768583952722" lon="120.99641846576348"><ele>11.0</ele><time>2026-04-02T04:22:16Z</time></trkpt><trkpt lat="14.557769162402789" lon="120.99641472178895"><ele>11.0</ele><time>2026-04-02T04:22:17Z</time></trkpt><trkpt lat="14.557838595881323" lon="120.99639517261771"><ele>11.0</ele><time>2026-04-02T04:22:18Z</time></trkpt><trkpt lat="14.557906597395647" lon="120.99637596489663"><ele>10.666666666666666</ele><time>2026-04-02T04:22:19Z</time></trkpt><trkpt lat="14.557968964452332" lon="120.99636360794985"><ele>10.333333333333332</ele><time>2026-04-02T04:22:20Z</time></trkpt><trkpt lat="14.558032863552508" lon="120.99634791327186"><ele>10.0</ele><time>2026-04-02T04:22:21Z</time></trkpt><trkpt lat="14.558108700638332" lon="120.99633041204373"><ele>9.666666666666666</ele><time>2026-04-02T04:22:22Z</time></trkpt><trkpt lat="14.558221600869711" lon="120.99630959587343"><ele>9.333333333333334</ele><time>2026-04-02T04:22:24Z</time></trkpt><trkpt lat="14.558250951868073" lon="120.99625177406837"><ele>9.0</ele><time>2026-04-02T04:22:32Z</time></trkpt><trkpt lat="14.558208034653063" lon="120.99608051430546"><ele>9.0</ele><time>2026-04-02T04:22:43Z</time></trkpt><trkpt lat="14.558178168668718" lon="120.99602158818541"><ele>9.0</ele><time>2026-04-02T04:22:47Z</time></trkpt><trkpt lat="14.558158525011274" lon="120.99592521482339"><ele>9.0</ele><time>2026-04-02T04:22:49Z</time></trkpt><trkpt lat="14.558071777903429" lon="120.99584882200121"><ele>9.0</ele><time>2026-04-02T04:22:51Z</time></trkpt><trkpt lat="14.558039419040115" lon="120.99574658914847"><ele>9.0</ele><time>2026-04-02T04:22:53Z</time></trkpt><trkpt lat="14.558028736739235" lon="120.9956542266789"><ele>9.0</ele><time>2026-04-02T04:22:55Z</time></trkpt><trkpt lat="14.55800752320646" lon="120.99555393494444"><ele>9.0</ele><time>2026-04-02T04:22:57Z</time></trkpt><trkpt lat="14.557981729527183" lon="120.99544643624353"><ele>9.0</ele><time>2026-04-02T04:22:59.061Z</time></trkpt><trkpt lat="14.557955550389481" lon="120.99533977650673"><ele>9.0</ele><time>2026-04-02T04:23:01.05Z</time></trkpt><trkpt lat="14.55828986390809" lon="120.99537222095393"><ele>9.0</ele><time>2026-04-02T04:25:32Z</time></trkpt><trkpt lat="14.558360467251582" lon="120.9953600914127"><ele>9.0</ele><time>2026-04-02T04:27:59.001Z</time></trkpt><trkpt lat="14.558307623496953" lon="120.99541582227913"><ele>9.0</ele><time>2026-04-02T04:28:32.001Z</time></trkpt></trkseg></trk></gpx>